Observation data for Persimmon Gap on 08/10/2018      Previous  Date       Current Mesonet Observations  Soil Data  Daily Summary Page  Observations in Plain Language
KPG1 100501Z 03009G14KT 30/15 A3008 RMK A01 T02970147  RH  040%=      5-min Rain = 0
KPG1 100502Z 02012KT 30/15 A3008 RMK A01 T02970147  RH  040%=      5-min Rain = 0
KPG1 100503Z 03010KT 30/15 A3008 RMK A01 T02970147  RH  040%=      5-min Rain = 0
KPG1 100504Z 03009KT 30/15 A3008 RMK A01 T02970147  RH  040%=      5-min Rain = 0
KPG1 100505Z 03012KT 30/15 A3007 RMK A01 T02960147  RH  040%=      5-min Rain = 0
KPG1 100506Z 02013KT 30/15 A3007 RMK A01 T02960147  RH  040%=      5-min Rain = 0
KPG1 100507Z 02011KT 30/15 A3007 RMK A01 T02960146  RH  040%=      5-min Rain = 0
KPG1 100508Z 02012KT 30/15 A3007 RMK A01 T02960146  RH  040%=      5-min Rain = 0
KPG1 100509Z 03012KT 30/15 A3007 RMK A01 T02960146  RH  040%=      5-min Rain = 0
KPG1 100510Z 03010KT 30/15 A3007 RMK A01 T02970146  RH  040%=      5-min Rain = 0
KPG1 100511Z 02011KT 30/15 A3007 RMK A01 T02960146  RH  040%=      5-min Rain = 0
KPG1 100512Z 02011KT 30/15 A3007 RMK A01 T02970146  RH  040%=      5-min Rain = 0
KPG1 100513Z 02011KT 30/15 A3007 RMK A01 T02960146  RH  040%=      5-min Rain = 0
KPG1 100514Z 02011KT 30/15 A3007 RMK A01 T02970146  RH  040%=      5-min Rain = 0
KPG1 100515Z 02010KT 30/15 A3007 RMK A01 T02970146  RH  040%=      5-min Rain = 0
KPG1 100516Z 04009KT 30/15 A3007 RMK A01 T02960145  RH  040%=      5-min Rain = 0
KPG1 100517Z 03010KT 30/15 A3007 RMK A01 T02960145  RH  040%=      5-min Rain = 0
KPG1 100518Z 03010KT 30/15 A3007 RMK A01 T02960145  RH  040%=      5-min Rain = 0
KPG1 100519Z 03009KT 30/15 A3007 RMK A01 T02960145  RH  040%=      5-min Rain = 0
KPG1 100520Z 03012KT 30/15 A3007 RMK A01 T02960145  RH  040%=      5-min Rain = 0
KPG1 100521Z 03011KT 30/15 A3007 RMK A01 T02960145  RH  040%=      5-min Rain = 0
KPG1 100522Z 03009KT 30/15 A3007 RMK A01 T02960145  RH  040%=      5-min Rain = 0
KPG1 100523Z 03010KT 30/15 A3007 RMK A01 T02960145  RH  040%=      5-min Rain = 0
KPG1 100524Z 03010KT 30/15 A3007 RMK A01 T02950145  RH  040%=      5-min Rain = 0
KPG1 100525Z 02009KT 30/15 A3008 RMK A01 T02950145  RH  040%=      5-min Rain = 0
KPG1 100526Z 02009KT 30/15 A3008 RMK A01 T02950145  RH  040%=      5-min Rain = 0
KPG1 100527Z 02008KT 29/15 A3008 RMK A01 T02940145  RH  040%=      5-min Rain = 0
KPG1 100528Z 01009KT 29/14 A3008 RMK A01 T02940144  RH  040%=      5-min Rain = 0
KPG1 100529Z 01010KT 29/14 A3008 RMK A01 T02930144  RH  040%=      5-min Rain = 0
KPG1 100530Z 02008KT 29/15 A3008 RMK A01 T02930145  RH  040%=      5-min Rain = 0
KPG1 100531Z 02008KT 29/15 A3008 RMK A01 T02930145  RH  040%=      5-min Rain = 0
KPG1 100532Z 02010KT 29/14 A3008 RMK A01 T02930144  RH  040%=      5-min Rain = 0
KPG1 100533Z 01010KT 29/14 A3008 RMK A01 T02930144  RH  040%=      5-min Rain = 0
KPG1 100534Z 02010KT 29/14 A3008 RMK A01 T02930144  RH  040%=      5-min Rain = 0
KPG1 100535Z 01010KT 29/14 A3008 RMK A01 T02930144  RH  040%=      5-min Rain = 0
KPG1 100536Z 01010KT 29/14 A3008 RMK A01 T02930144  RH  040%=      5-min Rain = 0
KPG1 100537Z 02011KT 29/14 A3008 RMK A01 T02930144  RH  040%=      5-min Rain = 0
KPG1 100538Z 01011KT 29/14 A3008 RMK A01 T02920143  RH  040%=      5-min Rain = 0
KPG1 100539Z 03011KT 29/14 A3008 RMK A01 T02920143  RH  040%=      5-min Rain = 0
KPG1 100540Z 01012KT 29/14 A3008 RMK A01 T02920143  RH  040%=      5-min Rain = 0
KPG1 100541Z 01013KT 29/14 A3008 RMK A01 T02930143  RH  040%=      5-min Rain = 0
KPG1 100542Z 01012KT 29/14 A3008 RMK A01 T02920143  RH  040%=      5-min Rain = 0
KPG1 100543Z 01011KT 29/14 A3008 RMK A01 T02920142  RH  040%=      5-min Rain = 0
KPG1 100544Z 01010KT 29/14 A3008 RMK A01 T02920142  RH  040%=      5-min Rain = 0
KPG1 100545Z 00011KT 29/14 A3008 RMK A01 T02930143  RH  040%=      5-min Rain = 0
KPG1 100546Z 01010KT 29/14 A3008 RMK A01 T02920142  RH  040%=      5-min Rain = 0
KPG1 100547Z 00011KT 29/14 A3008 RMK A01 T02920142  RH  040%=      5-min Rain = 0
KPG1 100548Z 00010KT 29/14 A3008 RMK A01 T02910143  RH  040%=      5-min Rain = 0
KPG1 100549Z 00011KT 29/14 A3008 RMK A01 T02910142  RH  040%=      5-min Rain = 0
KPG1 100550Z 01011KT 29/14 A3008 RMK A01 T02910143  RH  040%=      5-min Rain = 0
KPG1 100551Z 01011KT 29/14 A3008 RMK A01 T02910142  RH  040%=      5-min Rain = 0
KPG1 100552Z 01011KT 29/14 A3008 RMK A01 T02910142  RH  040%=      5-min Rain = 0
KPG1 100553Z 01012KT 29/14 A3008 RMK A01 T02910142  RH  040%=      5-min Rain = 0
KPG1 100554Z 00011KT 29/14 A3008 RMK A01 T02910142  RH  040%=      5-min Rain = 0
KPG1 100555Z 02010KT 29/14 A3008 RMK A01 T02910142  RH  040%=      5-min Rain = 0
KPG1 100556Z 02008KT 29/14 A3008 RMK A01 T02900142  RH  040%=      5-min Rain = 0
KPG1 100557Z 02008KT 29/14 A3008 RMK A01 T02900142  RH  040%=      5-min Rain = 0
KPG1 100558Z 02009KT 29/14 A3008 RMK A01 T02900142  RH  040%=      5-min Rain = 0
KPG1 100559Z 01008KT 29/14 A3008 RMK A01 T02900142  RH  041%=      5-min Rain = 0
KPG1 100600Z 01009KT 29/14 A3008 RMK A01 T02900142  RH  041%=      5-min Rain = 0
KPG1 100601Z 02008KT 29/14 A3008 RMK A01 T02890142  RH  041%=      5-min Rain = 0
KPG1 100602Z 02008KT 29/14 A3008 RMK A01 T02890142  RH  041%=      5-min Rain = 0
KPG1 100603Z 02012KT 29/14 A3008 RMK A01 T02890142  RH  041%=      5-min Rain = 0
KPG1 100604Z 02009KT 29/14 A3008 RMK A01 T02890142  RH  041%=      5-min Rain = 0
KPG1 100605Z 02010KT 29/14 A3008 RMK A01 T02890142  RH  041%=      5-min Rain = 0
KPG1 100606Z 02010KT 29/14 A3008 RMK A01 T02890142  RH  041%=      5-min Rain = 0
KPG1 100607Z 02010KT 29/14 A3008 RMK A01 T02890142  RH  041%=      5-min Rain = 0
KPG1 100608Z 02010KT 29/14 A3008 RMK A01 T02890142  RH  041%=      5-min Rain = 0
KPG1 100609Z 01011KT 29/14 A3008 RMK A01 T02890142  RH  041%=      5-min Rain = 0
KPG1 100610Z 02011KT 29/14 A3008 RMK A01 T02890142  RH  041%=      5-min Rain = 0
KPG1 100611Z 02011KT 29/14 A3008 RMK A01 T02880141  RH  041%=      5-min Rain = 0
KPG1 100612Z 01008KT 29/14 A3008 RMK A01 T02880142  RH  041%=      5-min Rain = 0
KPG1 100613Z 02010KT 29/14 A3008 RMK A01 T02880142  RH  041%=      5-min Rain = 0
KPG1 100614Z 02011KT 29/14 A3008 RMK A01 T02880142  RH  041%=      5-min Rain = 0
KPG1 100615Z 02010KT 29/14 A3008 RMK A01 T02880142  RH  041%=      5-min Rain = 0
KPG1 100616Z 01011KT 29/14 A3008 RMK A01 T02880142  RH  041%=      5-min Rain = 0
KPG1 100617Z 02009KT 29/14 A3008 RMK A01 T02880142  RH  041%=      5-min Rain = 0
KPG1 100618Z 01011KT 29/14 A3008 RMK A01 T02870142  RH  041%=      5-min Rain = 0
KPG1 100619Z 01012KT 29/14 A3008 RMK A01 T02870143  RH  041%=      5-min Rain = 0
KPG1 100620Z 02012KT 29/14 A3008 RMK A01 T02870144  RH  042%=      5-min Rain = 0
KPG1 100621Z 03011KT 29/15 A3008 RMK A01 T02860145  RH  042%=      5-min Rain = 0
KPG1 100622Z 03013KT 29/15 A3008 RMK A01 T02860146  RH  042%=      5-min Rain = 0
KPG1 100623Z 04014KT 29/15 A3008 RMK A01 T02860147  RH  043%=      5-min Rain = 0
KPG1 100624Z 04014KT 29/15 A3008 RMK A01 T02860148  RH  043%=      5-min Rain = 0
KPG1 100625Z 04010KT 29/15 A3008 RMK A01 T02850148  RH  043%=      5-min Rain = 0
KPG1 100626Z 04008KT 29/15 A3008 RMK A01 T02860148  RH  043%=      5-min Rain = 0
KPG1 100627Z 03009KT 29/15 A3008 RMK A01 T02850148  RH  043%=      5-min Rain = 0
KPG1 100628Z 02009KT 29/15 A3008 RMK A01 T02850147  RH  043%=      5-min Rain = 0
KPG1 100629Z 02010KT 28/15 A3008 RMK A01 T02840147  RH  043%=      5-min Rain = 0
KPG1 100630Z 02011KT 28/15 A3008 RMK A01 T02840148  RH  043%=      5-min Rain = 0
KPG1 100631Z 02012KT 28/15 A3008 RMK A01 T02830148  RH  044%=      5-min Rain = 0
KPG1 100632Z 02012KT 28/15 A3008 RMK A01 T02830149  RH  044%=      5-min Rain = 0
KPG1 100633Z 03010KT 28/15 A3008 RMK A01 T02820149  RH  044%=      5-min Rain = 0
KPG1 100634Z 03010KT 28/15 A3008 RMK A01 T02820150  RH  044%=      5-min Rain = 0
KPG1 100635Z 04010KT 28/15 A3008 RMK A01 T02820150  RH  045%=      5-min Rain = 0
KPG1 100636Z 03009KT 28/15 A3008 RMK A01 T02810150  RH  045%=      5-min Rain = 0
KPG1 100637Z 04012KT 28/15 A3008 RMK A01 T02810150  RH  045%=      5-min Rain = 0
KPG1 100638Z 04012KT 28/15 A3008 RMK A01 T02810151  RH  045%=      5-min Rain = 0
KPG1 100639Z 03012KT 28/15 A3008 RMK A01 T02810151  RH  045%=      5-min Rain = 0
KPG1 100640Z 03011KT 28/15 A3008 RMK A01 T02800151  RH  045%=      5-min Rain = 0
KPG1 100641Z 03013KT 28/15 A3008 RMK A01 T02800152  RH  046%=      5-min Rain = 0
KPG1 100642Z 03012KT 28/15 A3008 RMK A01 T02800152  RH  046%=      5-min Rain = 0
KPG1 100643Z 03011KT 28/15 A3008 RMK A01 T02790152  RH  046%=      5-min Rain = 0
KPG1 100644Z 03012KT 28/15 A3008 RMK A01 T02790152  RH  046%=      5-min Rain = 0
KPG1 100645Z 03011KT 28/15 A3008 RMK A01 T02790153  RH  046%=      5-min Rain = 0
KPG1 100646Z 03012KT 28/15 A3008 RMK A01 T02780153  RH  046%=      5-min Rain = 0
KPG1 100647Z 04010KT 28/15 A3008 RMK A01 T02780153  RH  046%=      5-min Rain = 0
KPG1 100648Z 04010KT 28/15 A3008 RMK A01 T02780153  RH  046%=      5-min Rain = 0
KPG1 100649Z 03010KT 28/15 A3008 RMK A01 T02780153  RH  047%=      5-min Rain = 0
KPG1 100650Z 03009KT 28/15 A3008 RMK A01 T02770153  RH  047%=      5-min Rain = 0
KPG1 100651Z 03012KT 28/15 A3008 RMK A01 T02770154  RH  047%=      5-min Rain = 0
KPG1 100652Z 04012KT 28/15 A3008 RMK A01 T02770154  RH  047%=      5-min Rain = 0
KPG1 100653Z 04010KT 28/15 A3008 RMK A01 T02770154  RH  047%=      5-min Rain = 0
KPG1 100654Z 04011KT 28/15 A3008 RMK A01 T02760154  RH  047%=      5-min Rain = 0
KPG1 100655Z 04011KT 28/16 A3008 RMK A01 T02760155  RH  047%=      5-min Rain = 0
KPG1 100656Z 04011KT 28/16 A3008 RMK A01 T02760155  RH  048%=      5-min Rain = 0
KPG1 100657Z 04010KT 28/16 A3008 RMK A01 T02750155  RH  048%=      5-min Rain = 0
KPG1 100658Z 04010KT 28/16 A3008 RMK A01 T02750155  RH  048%=      5-min Rain = 0
KPG1 100659Z 04011KT 28/16 A3008 RMK A01 T02750155  RH  048%=      5-min Rain = 0
KPG1 100700Z 04010KT 28/16 A3008 RMK A01 T02750155  RH  048%=      5-min Rain = 0
KPG1 100701Z 03011KT 28/16 A3008 RMK A01 T02750155  RH  048%=      5-min Rain = 0
KPG1 100702Z 04011KT 27/16 A3008 RMK A01 T02740155  RH  048%=      5-min Rain = 0
KPG1 100703Z 03012KT 27/16 A3008 RMK A01 T02740155  RH  048%=      5-min Rain = 0
KPG1 100704Z 03011KT 27/16 A3008 RMK A01 T02740155  RH  048%=      5-min Rain = 0
KPG1 100705Z 03011KT 27/16 A3008 RMK A01 T02740155  RH  048%=      5-min Rain = 0
KPG1 100706Z 03010KT 27/16 A3008 RMK A01 T02740156  RH  048%=      5-min Rain = 0
KPG1 100707Z 03012KT 27/16 A3008 RMK A01 T02730156  RH  049%=      5-min Rain = 0
KPG1 100708Z 05009KT 27/16 A3008 RMK A01 T02730156  RH  049%=      5-min Rain = 0
KPG1 100709Z 04007KT 27/16 A3008 RMK A01 T02730156  RH  049%=      5-min Rain = 0
KPG1 100710Z 03010KT 27/16 A3008 RMK A01 T02730156  RH  049%=      5-min Rain = 0
KPG1 100711Z 02010KT 27/16 A3008 RMK A01 T02720156  RH  049%=      5-min Rain = 0
KPG1 100712Z 03010KT 27/16 A3008 RMK A01 T02720156  RH  049%=      5-min Rain = 0
KPG1 100713Z 04010KT 27/16 A3008 RMK A01 T02720156  RH  049%=      5-min Rain = 0
KPG1 100714Z 03008KT 27/16 A3008 RMK A01 T02720156  RH  049%=      5-min Rain = 0
KPG1 100715Z 03009KT 27/16 A3008 RMK A01 T02710156  RH  049%=      5-min Rain = 0
KPG1 100716Z 03011KT 27/16 A3008 RMK A01 T02710156  RH  049%=      5-min Rain = 0
KPG1 100717Z 03011KT 27/16 A3008 RMK A01 T02710156  RH  049%=      5-min Rain = 0
KPG1 100718Z 03012KT 27/16 A3008 RMK A01 T02700156  RH  049%=      5-min Rain = 0
KPG1 100719Z 04012KT 27/16 A3008 RMK A01 T02700156  RH  050%=      5-min Rain = 0
KPG1 100720Z 04011KT 27/16 A3008 RMK A01 T02700156  RH  050%=      5-min Rain = 0
KPG1 100721Z 04012KT 27/16 A3008 RMK A01 T02700156  RH  050%=      5-min Rain = 0
KPG1 100722Z 04011KT 27/16 A3008 RMK A01 T02700156  RH  050%=      5-min Rain = 0
KPG1 100723Z 04011KT 27/16 A3008 RMK A01 T02700156  RH  050%=      5-min Rain = 0
KPG1 100724Z 04012KT 27/16 A3008 RMK A01 T02700156  RH  050%=      5-min Rain = 0
KPG1 100725Z 04011KT 27/16 A3008 RMK A01 T02690156  RH  050%=      5-min Rain = 0
KPG1 100726Z 04012KT 27/16 A3008 RMK A01 T02690156  RH  050%=      5-min Rain = 0
KPG1 100727Z 03012KT 27/16 A3008 RMK A01 T02690156  RH  050%=      5-min Rain = 0
KPG1 100728Z 04013KT 27/16 A3007 RMK A01 T02690156  RH  050%=      5-min Rain = 0
KPG1 100729Z 04012KT 27/16 A3007 RMK A01 T02690156  RH  050%=      5-min Rain = 0
KPG1 100730Z 04013KT 27/16 A3007 RMK A01 T02680156  RH  050%=      5-min Rain = 0
KPG1 100731Z 04014KT 27/16 A3007 RMK A01 T02680156  RH  050%=      5-min Rain = 0
KPG1 100732Z 04014KT 27/16 A3007 RMK A01 T02680156  RH  050%=      5-min Rain = 0
KPG1 100733Z 04013KT 27/16 A3007 RMK A01 T02680156  RH  050%=      5-min Rain = 0
KPG1 100734Z 04013KT 27/16 A3007 RMK A01 T02680156  RH  050%=      5-min Rain = 0
KPG1 100735Z 04013KT 27/16 A3007 RMK A01 T02680156  RH  050%=      5-min Rain = 0
KPG1 100736Z 04013KT 27/16 A3007 RMK A01 T02670156  RH  051%=      5-min Rain = 0
KPG1 100737Z 04011KT 27/16 A3007 RMK A01 T02670156  RH  051%=      5-min Rain = 0
KPG1 100738Z 04014KT 27/16 A3007 RMK A01 T02670156  RH  051%=      5-min Rain = 0
KPG1 100739Z 04013KT 27/16 A3007 RMK A01 T02670157  RH  051%=      5-min Rain = 0
KPG1 100740Z 04010KT 27/16 A3007 RMK A01 T02670156  RH  051%=      5-min Rain = 0
KPG1 100741Z 04013KT 27/16 A3007 RMK A01 T02660156  RH  051%=      5-min Rain = 0
KPG1 100742Z 04013KT 27/16 A3007 RMK A01 T02660156  RH  051%=      5-min Rain = 0
KPG1 100743Z 04013KT 27/16 A3007 RMK A01 T02660156  RH  051%=      5-min Rain = 0
KPG1 100744Z 03012KT 27/16 A3007 RMK A01 T02660156  RH  051%=      5-min Rain = 0
KPG1 100745Z 03013KT 27/16 A3007 RMK A01 T02660156  RH  051%=      5-min Rain = 0
KPG1 100746Z 03012KT 27/16 A3007 RMK A01 T02650156  RH  051%=      5-min Rain = 0
KPG1 100747Z 04012KT 27/16 A3007 RMK A01 T02650156  RH  051%=      5-min Rain = 0
KPG1 100748Z 04011KT 27/16 A3007 RMK A01 T02650156  RH  051%=      5-min Rain = 0
KPG1 100749Z 03011KT 27/16 A3007 RMK A01 T02650156  RH  051%=      5-min Rain = 0
KPG1 100750Z 03011KT 26/16 A3007 RMK A01 T02640156  RH  051%=      5-min Rain = 0
KPG1 100751Z 03012KT 26/16 A3007 RMK A01 T02640156  RH  051%=      5-min Rain = 0
KPG1 100752Z 03010KT 26/16 A3007 RMK A01 T02640156  RH  051%=      5-min Rain = 0
KPG1 100753Z 02012KT 26/16 A3007 RMK A01 T02640156  RH  052%=      5-min Rain = 0
KPG1 100754Z 03012KT 26/16 A3007 RMK A01 T02630156  RH  052%=      5-min Rain = 0
KPG1 100755Z 03013KT 26/16 A3007 RMK A01 T02630156  RH  052%=      5-min Rain = 0
KPG1 100756Z 03012KT 26/16 A3007 RMK A01 T02630157  RH  052%=      5-min Rain = 0
KPG1 100757Z 03012KT 26/16 A3007 RMK A01 T02630156  RH  052%=      5-min Rain = 0
KPG1 100758Z 03012KT 26/16 A3007 RMK A01 T02630156  RH  052%=      5-min Rain = 0
KPG1 100759Z 02013KT 26/16 A3007 RMK A01 T02630156  RH  052%=      5-min Rain = 0
KPG1 100800Z 03012KT 26/16 A3007 RMK A01 T02620156  RH  052%=      5-min Rain = 0
KPG1 100801Z 03013KT 26/16 A3007 RMK A01 T02620156  RH  052%=      5-min Rain = 0
KPG1 100802Z 02012KT 26/16 A3007 RMK A01 T02620156  RH  052%=      5-min Rain = 0
KPG1 100803Z 02012KT 26/16 A3007 RMK A01 T02620157  RH  052%=      5-min Rain = 0
KPG1 100804Z 02015KT 26/16 A3007 RMK A01 T02620157  RH  052%=      5-min Rain = 0
KPG1 100805Z 02013KT 26/16 A3007 RMK A01 T02620157  RH  052%=      5-min Rain = 0
KPG1 100806Z 02013KT 26/16 A3006 RMK A01 T02620157  RH  052%=      5-min Rain = 0
KPG1 100807Z 02015KT 26/16 A3006 RMK A01 T02620157  RH  052%=      5-min Rain = 0
KPG1 100808Z 02013KT 26/16 A3006 RMK A01 T02620157  RH  052%=      5-min Rain = 0
KPG1 100809Z 02011KT 26/16 A3006 RMK A01 T02610157  RH  052%=      5-min Rain = 0
KPG1 100810Z 03010KT 26/16 A3006 RMK A01 T02610157  RH  053%=      5-min Rain = 0
KPG1 100811Z 02011KT 26/16 A3006 RMK A01 T02610157  RH  053%=      5-min Rain = 0
KPG1 100812Z 03014KT 26/16 A3006 RMK A01 T02610157  RH  053%=      5-min Rain = 0
KPG1 100813Z 02012KT 26/16 A3006 RMK A01 T02610157  RH  053%=      5-min Rain = 0
KPG1 100814Z 02012KT 26/16 A3006 RMK A01 T02610157  RH  053%=      5-min Rain = 0
KPG1 100815Z 02013KT 26/16 A3006 RMK A01 T02610157  RH  053%=      5-min Rain = 0
KPG1 100816Z 02014KT 26/16 A3006 RMK A01 T02600157  RH  053%=      5-min Rain = 0
KPG1 100817Z 02013KT 26/16 A3006 RMK A01 T02610157  RH  053%=      5-min Rain = 0
KPG1 100818Z 03013KT 26/16 A3006 RMK A01 T02600157  RH  053%=      5-min Rain = 0
KPG1 100819Z 03012KT 26/16 A3006 RMK A01 T02600157  RH  053%=      5-min Rain = 0
KPG1 100820Z 03012KT 26/16 A3006 RMK A01 T02600157  RH  053%=      5-min Rain = 0
KPG1 100821Z 03011KT 26/16 A3006 RMK A01 T02600157  RH  053%=      5-min Rain = 0
KPG1 100822Z 03010KT 26/16 A3006 RMK A01 T02590157  RH  053%=      5-min Rain = 0
KPG1 100823Z 03012KT 26/16 A3006 RMK A01 T02590157  RH  053%=      5-min Rain = 0
KPG1 100824Z 03012KT 26/16 A3006 RMK A01 T02590157  RH  053%=      5-min Rain = 0
KPG1 100825Z 03011KT 26/16 A3006 RMK A01 T02590157  RH  053%=      5-min Rain = 0
KPG1 100826Z 03012KT 26/16 A3006 RMK A01 T02590157  RH  053%=      5-min Rain = 0
KPG1 100827Z 03013KT 26/16 A3006 RMK A01 T02580157  RH  053%=      5-min Rain = 0
KPG1 100828Z 03011KT 26/16 A3006 RMK A01 T02590157  RH  054%=      5-min Rain = 0
KPG1 100829Z 03011KT 26/16 A3006 RMK A01 T02590157  RH  053%=      5-min Rain = 0
KPG1 100830Z 03012KT 26/16 A3006 RMK A01 T02580157  RH  054%=      5-min Rain = 0
KPG1 100831Z 03010KT 26/16 A3006 RMK A01 T02580157  RH  054%=      5-min Rain = 0
KPG1 100832Z 02013KT 26/16 A3006 RMK A01 T02580157  RH  054%=      5-min Rain = 0
KPG1 100833Z 02014KT 26/16 A3006 RMK A01 T02580158  RH  054%=      5-min Rain = 0
KPG1 100834Z 03013KT 26/16 A3006 RMK A01 T02580158  RH  054%=      5-min Rain = 0
KPG1 100835Z 02013KT 26/16 A3006 RMK A01 T02580157  RH  054%=      5-min Rain = 0
KPG1 100836Z 02013KT 26/16 A3006 RMK A01 T02580158  RH  054%=      5-min Rain = 0
KPG1 100837Z 02012KT 26/16 A3006 RMK A01 T02580158  RH  054%=      5-min Rain = 0
KPG1 100838Z 02013KT 26/16 A3006 RMK A01 T02580158  RH  054%=      5-min Rain = 0
KPG1 100839Z 02013KT 26/16 A3006 RMK A01 T02580158  RH  054%=      5-min Rain = 0
KPG1 100840Z 02012KT 26/16 A3006 RMK A01 T02580158  RH  054%=      5-min Rain = 0
KPG1 100841Z 02011KT 26/16 A3006 RMK A01 T02580158  RH  054%=      5-min Rain = 0
KPG1 100842Z 03011KT 26/16 A3006 RMK A01 T02580158  RH  054%=      5-min Rain = 0
KPG1 100843Z 03011KT 26/16 A3006 RMK A01 T02570158  RH  054%=      5-min Rain = 0
KPG1 100844Z 02012KT 26/16 A3006 RMK A01 T02570158  RH  054%=      5-min Rain = 0
KPG1 100845Z 02012KT 26/16 A3006 RMK A01 T02570158  RH  054%=      5-min Rain = 0
KPG1 100846Z 02010KT 26/16 A3006 RMK A01 T02570158  RH  054%=      5-min Rain = 0
KPG1 100847Z 02011KT 26/16 A3006 RMK A01 T02560157  RH  054%=      5-min Rain = 0
KPG1 100848Z 02010KT 26/16 A3006 RMK A01 T02570158  RH  054%=      5-min Rain = 0
KPG1 100849Z 03010KT 26/16 A3006 RMK A01 T02560157  RH  054%=      5-min Rain = 0
KPG1 100850Z 03011KT 26/16 A3006 RMK A01 T02560157  RH  054%=      5-min Rain = 0
KPG1 100851Z 02010KT 26/16 A3006 RMK A01 T02560157  RH  054%=      5-min Rain = 0
KPG1 100852Z 02010KT 26/16 A3006 RMK A01 T02560157  RH  055%=      5-min Rain = 0
KPG1 100853Z 02011KT 26/16 A3006 RMK A01 T02550157  RH  055%=      5-min Rain = 0
KPG1 100854Z 02012KT 26/16 A3006 RMK A01 T02550158  RH  055%=      5-min Rain = 0
KPG1 100855Z 02012KT 26/16 A3006 RMK A01 T02550157  RH  055%=      5-min Rain = 0
KPG1 100856Z 02011KT 26/16 A3006 RMK A01 T02560158  RH  055%=      5-min Rain = 0
KPG1 100857Z 02011KT 26/16 A3006 RMK A01 T02560158  RH  055%=      5-min Rain = 0
KPG1 100858Z 01012KT 26/16 A3006 RMK A01 T02560158  RH  055%=      5-min Rain = 0
KPG1 100859Z 02011KT 26/16 A3006 RMK A01 T02560158  RH  054%=      5-min Rain = 0
KPG1 100900Z 02010KT 26/16 A3006 RMK A01 T02560158  RH  054%=      5-min Rain = 0
KPG1 100901Z 02011KT 26/16 A3006 RMK A01 T02560158  RH  054%=      5-min Rain = 0
KPG1 100902Z 01013KT 26/16 A3006 RMK A01 T02560158  RH  054%=      5-min Rain = 0
KPG1 100903Z 02012KT 26/16 A3006 RMK A01 T02560158  RH  054%=      5-min Rain = 0
KPG1 100904Z 02010KT 26/16 A3006 RMK A01 T02570158  RH  054%=      5-min Rain = 0
KPG1 100905Z 02012KT 26/16 A3006 RMK A01 T02560158  RH  054%=      5-min Rain = 0
KPG1 100906Z 02011KT 26/16 A3006 RMK A01 T02560158  RH  055%=      5-min Rain = 0
KPG1 100907Z 02012KT 26/16 A3006 RMK A01 T02560158  RH  055%=      5-min Rain = 0
KPG1 100908Z 02011KT 26/16 A3006 RMK A01 T02560158  RH  055%=      5-min Rain = 0
KPG1 100909Z 02011KT 26/16 A3006 RMK A01 T02560158  RH  055%=      5-min Rain = 0
KPG1 100910Z 01012KT 26/16 A3006 RMK A01 T02560158  RH  055%=      5-min Rain = 0
KPG1 100911Z 02011KT 26/16 A3006 RMK A01 T02560158  RH  055%=      5-min Rain = 0
KPG1 100912Z 02012KT 26/16 A3006 RMK A01 T02560158  RH  055%=      5-min Rain = 0
KPG1 100913Z 02013KT 26/16 A3006 RMK A01 T02560158  RH  055%=      5-min Rain = 0
KPG1 100914Z 01012KT 26/16 A3006 RMK A01 T02560158  RH  055%=      5-min Rain = 0
KPG1 100915Z 02012KT 26/16 A3006 RMK A01 T02560158  RH  055%=      5-min Rain = 0
KPG1 100916Z 02012KT 26/16 A3006 RMK A01 T02560158  RH  055%=      5-min Rain = 0
KPG1 100917Z 01011KT 26/16 A3006 RMK A01 T02560158  RH  055%=      5-min Rain = 0
KPG1 100918Z 01010KT 26/16 A3006 RMK A01 T02560158  RH  055%=      5-min Rain = 0
KPG1 100919Z 01012KT 26/16 A3006 RMK A01 T02560158  RH  055%=      5-min Rain = 0
KPG1 100920Z 02011KT 26/16 A3006 RMK A01 T02560158  RH  055%=      5-min Rain = 0
KPG1 100921Z 03012KT 26/16 A3006 RMK A01 T02560158  RH  055%=      5-min Rain = 0
KPG1 100922Z 02011KT 26/16 A3006 RMK A01 T02560158  RH  055%=      5-min Rain = 0
KPG1 100923Z 02013KT 26/16 A3006 RMK A01 T02560158  RH  055%=      5-min Rain = 0
KPG1 100924Z 02012KT 26/16 A3006 RMK A01 T02560158  RH  055%=      5-min Rain = 0
KPG1 100925Z 02012KT 26/16 A3006 RMK A01 T02560158  RH  055%=      5-min Rain = 0
KPG1 100926Z 02011KT 26/16 A3006 RMK A01 T02560158  RH  055%=      5-min Rain = 0
KPG1 100927Z 02013KT 26/16 A3006 RMK A01 T02560158  RH  055%=      5-min Rain = 0
KPG1 100928Z 02012KT 26/16 A3006 RMK A01 T02560158  RH  055%=      5-min Rain = 0
KPG1 100929Z 02011KT 26/16 A3006 RMK A01 T02560158  RH  055%=      5-min Rain = 0
KPG1 100930Z 01013KT 26/16 A3006 RMK A01 T02560158  RH  055%=      5-min Rain = 0
KPG1 100931Z 01011KT 26/16 A3006 RMK A01 T02560158  RH  055%=      5-min Rain = 0
KPG1 100932Z 02012KT 26/16 A3006 RMK A01 T02560158  RH  055%=      5-min Rain = 0
KPG1 100933Z 01012KT 26/16 A3006 RMK A01 T02560158  RH  055%=      5-min Rain = 0
KPG1 100934Z 01013KT 26/16 A3006 RMK A01 T02560159  RH  055%=      5-min Rain = 0
KPG1 100935Z 02010KT 26/16 A3006 RMK A01 T02560158  RH  055%=      5-min Rain = 0
KPG1 100936Z 01012KT 26/16 A3006 RMK A01 T02560158  RH  055%=      5-min Rain = 0
KPG1 100937Z 02010KT 26/16 A3006 RMK A01 T02560158  RH  055%=      5-min Rain = 0
KPG1 100938Z 02011KT 26/16 A3006 RMK A01 T02560158  RH  055%=      5-min Rain = 0
KPG1 100939Z 02011KT 26/16 A3006 RMK A01 T02560158  RH  055%=      5-min Rain = 0
KPG1 100940Z 02011KT 26/16 A3006 RMK A01 T02560158  RH  055%=      5-min Rain = 0
KPG1 100941Z 03010KT 26/16 A3006 RMK A01 T02560158  RH  055%=      5-min Rain = 0
KPG1 100942Z 01011KT 26/16 A3006 RMK A01 T02560158  RH  055%=      5-min Rain = 0
KPG1 100943Z 01010KT 26/16 A3006 RMK A01 T02560159  RH  055%=      5-min Rain = 0
KPG1 100944Z 02012KT 26/16 A3006 RMK A01 T02560158  RH  055%=      5-min Rain = 0
KPG1 100945Z 02011KT 26/16 A3006 RMK A01 T02560158  RH  055%=      5-min Rain = 0
KPG1 100946Z 02010KT 26/16 A3006 RMK A01 T02560158  RH  055%=      5-min Rain = 0
KPG1 100947Z 02011KT 26/16 A3006 RMK A01 T02560158  RH  055%=      5-min Rain = 0
KPG1 100948Z 02012KT 26/16 A3006 RMK A01 T02560158  RH  055%=      5-min Rain = 0
KPG1 100949Z 02011KT 26/16 A3006 RMK A01 T02560158  RH  055%=      5-min Rain = 0
KPG1 100950Z 02010KT 26/16 A3006 RMK A01 T02560158  RH  055%=      5-min Rain = 0
KPG1 100951Z 02010KT 26/16 A3006 RMK A01 T02560158  RH  055%=      5-min Rain = 0
KPG1 100952Z 02011KT 26/16 A3006 RMK A01 T02560158  RH  055%=      5-min Rain = 0
KPG1 100953Z 02012KT 26/16 A3006 RMK A01 T02560158  RH  055%=      5-min Rain = 0
KPG1 100954Z 01012KT 26/16 A3006 RMK A01 T02560158  RH  055%=      5-min Rain = 0
KPG1 100955Z 02012KT 26/16 A3006 RMK A01 T02560158  RH  055%=      5-min Rain = 0
KPG1 100956Z 02012KT 26/16 A3006 RMK A01 T02560158  RH  055%=      5-min Rain = 0
KPG1 100957Z 02011KT 26/16 A3006 RMK A01 T02560158  RH  055%=      5-min Rain = 0
KPG1 100958Z 02012KT 26/16 A3006 RMK A01 T02560158  RH  055%=      5-min Rain = 0
KPG1 100959Z 02012KT 26/16 A3006 RMK A01 T02560158  RH  055%=      5-min Rain = 0
KPG1 101000Z 02012KT 26/16 A3006 RMK A01 T02560158  RH  055%=      5-min Rain = 0
KPG1 101001Z 01011KT 26/16 A3006 RMK A01 T02560158  RH  055%=      5-min Rain = 0
KPG1 101002Z 02011KT 26/16 A3006 RMK A01 T02560158  RH  055%=      5-min Rain = 0
KPG1 101003Z 02011KT 26/16 A3006 RMK A01 T02560158  RH  055%=      5-min Rain = 0
KPG1 101004Z 02012KT 26/16 A3006 RMK A01 T02560158  RH  055%=      5-min Rain = 0
KPG1 101005Z 02012KT 26/16 A3006 RMK A01 T02560158  RH  055%=      5-min Rain = 0
KPG1 101006Z 02011KT 26/16 A3006 RMK A01 T02560158  RH  055%=      5-min Rain = 0
KPG1 101007Z 02013KT 26/16 A3006 RMK A01 T02560158  RH  055%=      5-min Rain = 0
KPG1 101008Z 02011KT 26/16 A3006 RMK A01 T02560158  RH  055%=      5-min Rain = 0
KPG1 101009Z 02011KT 26/16 A3006 RMK A01 T02560158  RH  055%=      5-min Rain = 0
KPG1 101010Z 02011KT 26/16 A3006 RMK A01 T02560158  RH  055%=      5-min Rain = 0
KPG1 101011Z 03012KT 26/16 A3006 RMK A01 T02560158  RH  055%=      5-min Rain = 0
KPG1 101012Z 03011KT 26/16 A3006 RMK A01 T02560158  RH  055%=      5-min Rain = 0
KPG1 101013Z 03012KT 26/16 A3006 RMK A01 T02550158  RH  055%=      5-min Rain = 0
KPG1 101014Z 03012KT 25/16 A3006 RMK A01 T02540158  RH  055%=      5-min Rain = 0
KPG1 101015Z 03011KT 25/16 A3006 RMK A01 T02540158  RH  055%=      5-min Rain = 0
KPG1 101016Z 04009KT 25/16 A3006 RMK A01 T02530158  RH  055%=      5-min Rain = 0
KPG1 101017Z 04010KT 25/16 A3006 RMK A01 T02530157  RH  055%=      5-min Rain = 0
KPG1 101018Z 04010KT 25/16 A3006 RMK A01 T02530158  RH  056%=      5-min Rain = 0
KPG1 101019Z 03010KT 25/16 A3006 RMK A01 T02530158  RH  056%=      5-min Rain = 0
KPG1 101020Z 03012KT 25/16 A3006 RMK A01 T02520157  RH  056%=      5-min Rain = 0
KPG1 101021Z 03011KT 25/16 A3006 RMK A01 T02530158  RH  056%=      5-min Rain = 0
KPG1 101022Z 03010KT 25/16 A3006 RMK A01 T02530158  RH  056%=      5-min Rain = 0
KPG1 101023Z 03009KT 25/16 A3006 RMK A01 T02520158  RH  056%=      5-min Rain = 0
KPG1 101024Z 02009KT 25/16 A3006 RMK A01 T02520158  RH  056%=      5-min Rain = 0
KPG1 101025Z 02009KT 25/16 A3006 RMK A01 T02520158  RH  056%=      5-min Rain = 0
KPG1 101026Z 03009KT 25/16 A3006 RMK A01 T02520158  RH  056%=      5-min Rain = 0
KPG1 101027Z 03011KT 25/16 A3006 RMK A01 T02520157  RH  056%=      5-min Rain = 0
KPG1 101028Z 02009KT 25/16 A3006 RMK A01 T02530158  RH  056%=      5-min Rain = 0
KPG1 101029Z 03011KT 25/16 A3006 RMK A01 T02530158  RH  055%=      5-min Rain = 0
KPG1 101030Z 02010KT 25/16 A3006 RMK A01 T02530158  RH  056%=      5-min Rain = 0
KPG1 101031Z 02010KT 25/16 A3006 RMK A01 T02530157  RH  056%=      5-min Rain = 0
KPG1 101032Z 02011KT 25/16 A3006 RMK A01 T02530158  RH  056%=      5-min Rain = 0
KPG1 101033Z 02009KT 25/16 A3006 RMK A01 T02530158  RH  055%=      5-min Rain = 0
KPG1 101034Z 02010KT 25/16 A3006 RMK A01 T02540158  RH  055%=      5-min Rain = 0
KPG1 101035Z 03011KT 25/16 A3006 RMK A01 T02540157  RH  055%=      5-min Rain = 0
KPG1 101036Z 02012KT 25/16 A3006 RMK A01 T02530157  RH  055%=      5-min Rain = 0
KPG1 101037Z 02010KT 25/16 A3006 RMK A01 T02530157  RH  055%=      5-min Rain = 0
KPG1 101038Z 02012KT 25/16 A3006 RMK A01 T02540158  RH  055%=      5-min Rain = 0
KPG1 101039Z 03012KT 25/16 A3006 RMK A01 T02540157  RH  055%=      5-min Rain = 0
KPG1 101040Z 02009KT 25/16 A3006 RMK A01 T02540157  RH  055%=      5-min Rain = 0
KPG1 101041Z 02010KT 25/16 A3006 RMK A01 T02530157  RH  055%=      5-min Rain = 0
KPG1 101042Z 02012KT 25/16 A3006 RMK A01 T02530157  RH  055%=      5-min Rain = 0
KPG1 101043Z 02011KT 25/16 A3006 RMK A01 T02540157  RH  055%=      5-min Rain = 0
KPG1 101044Z 03011KT 25/16 A3006 RMK A01 T02540158  RH  055%=      5-min Rain = 0
KPG1 101045Z 03012KT 25/16 A3006 RMK A01 T02540157  RH  055%=      5-min Rain = 0
KPG1 101046Z 03013KT 25/16 A3006 RMK A01 T02540158  RH  055%=      5-min Rain = 0
KPG1 101047Z 03012KT 25/16 A3006 RMK A01 T02540158  RH  055%=      5-min Rain = 0
KPG1 101048Z 03010KT 25/16 A3006 RMK A01 T02530157  RH  055%=      5-min Rain = 0
KPG1 101049Z 03011KT 25/16 A3006 RMK A01 T02530157  RH  055%=      5-min Rain = 0
KPG1 101050Z 03011KT 25/16 A3006 RMK A01 T02520157  RH  056%=      5-min Rain = 0
KPG1 101051Z 04010KT 25/16 A3006 RMK A01 T02520157  RH  056%=      5-min Rain = 0
KPG1 101052Z 03010KT 25/16 A3006 RMK A01 T02520158  RH  056%=      5-min Rain = 0
KPG1 101053Z 03009KT 25/16 A3006 RMK A01 T02520158  RH  056%=      5-min Rain = 0
KPG1 101054Z 03010KT 25/16 A3006 RMK A01 T02520158  RH  056%=      5-min Rain = 0
KPG1 101055Z 03009KT 25/16 A3006 RMK A01 T02520158  RH  056%=      5-min Rain = 0
KPG1 101056Z 03009KT 25/16 A3006 RMK A01 T02510157  RH  056%=      5-min Rain = 0
KPG1 101057Z 03009KT 25/16 A3006 RMK A01 T02510157  RH  056%=      5-min Rain = 0
KPG1 101058Z 03010KT 25/16 A3006 RMK A01 T02500157  RH  056%=      5-min Rain = 0
KPG1 101059Z 03009KT 25/16 A3006 RMK A01 T02500157  RH  056%=      5-min Rain = 0
KPG1 101100Z 03010KT 25/16 A3006 RMK A01 T02500157  RH  056%=      5-min Rain = 0
KPG1 101101Z 02009KT 25/16 A3006 RMK A01 T02500157  RH  056%=      5-min Rain = 0
KPG1 101102Z 02011KT 25/16 A3006 RMK A01 T02500157  RH  056%=      5-min Rain = 0
KPG1 101103Z 02010KT 25/16 A3006 RMK A01 T02510158  RH  056%=      5-min Rain = 0
KPG1 101104Z 03009KT 25/16 A3006 RMK A01 T02520157  RH  056%=      5-min Rain = 0
KPG1 101105Z 03008KT 25/16 A3006 RMK A01 T02520157  RH  056%=      5-min Rain = 0
KPG1 101106Z 03008KT 25/16 A3006 RMK A01 T02520157  RH  056%=      5-min Rain = 0
KPG1 101107Z 03009KT 25/16 A3006 RMK A01 T02510157  RH  056%=      5-min Rain = 0
KPG1 101108Z 02008KT 25/16 A3006 RMK A01 T02510157  RH  056%=      5-min Rain = 0
KPG1 101109Z 01007KT 25/16 A3006 RMK A01 T02520158  RH  056%=      5-min Rain = 0
KPG1 101110Z 02008KT 25/16 A3006 RMK A01 T02530158  RH  056%=      5-min Rain = 0
KPG1 101111Z 01008KT 25/16 A3006 RMK A01 T02520157  RH  056%=      5-min Rain = 0
KPG1 101112Z 02011KT 25/16 A3006 RMK A01 T02530157  RH  056%=      5-min Rain = 0
KPG1 101113Z 02010KT 25/16 A3006 RMK A01 T02530158  RH  056%=      5-min Rain = 0
KPG1 101114Z 03009KT 25/16 A3006 RMK A01 T02530157  RH  055%=      5-min Rain = 0
KPG1 101115Z 02010KT 25/16 A3006 RMK A01 T02530157  RH  055%=      5-min Rain = 0
KPG1 101116Z 03009KT 25/16 A3006 RMK A01 T02530158  RH  056%=      5-min Rain = 0
KPG1 101117Z 02009KT 25/16 A3006 RMK A01 T02530158  RH  056%=      5-min Rain = 0
KPG1 101118Z 01009KT 25/16 A3006 RMK A01 T02530158  RH  056%=      5-min Rain = 0
KPG1 101119Z 02008KT 25/16 A3006 RMK A01 T02530157  RH  056%=      5-min Rain = 0
KPG1 101120Z 02008KT 25/16 A3006 RMK A01 T02530157  RH  056%=      5-min Rain = 0
KPG1 101121Z 02009KT 25/16 A3006 RMK A01 T02530157  RH  056%=      5-min Rain = 0
KPG1 101122Z 02008KT 25/16 A3006 RMK A01 T02530158  RH  056%=      5-min Rain = 0
KPG1 101123Z 02009KT 25/16 A3006 RMK A01 T02530157  RH  055%=      5-min Rain = 0
KPG1 101124Z 02009KT 25/16 A3006 RMK A01 T02530157  RH  055%=      5-min Rain = 0
KPG1 101125Z 03008KT 25/16 A3006 RMK A01 T02530157  RH  055%=      5-min Rain = 0
KPG1 101126Z 03009KT 25/16 A3006 RMK A01 T02530157  RH  055%=      5-min Rain = 0
KPG1 101127Z 02009KT 25/16 A3006 RMK A01 T02520157  RH  056%=      5-min Rain = 0
KPG1 101128Z 03008KT 25/16 A3006 RMK A01 T02520157  RH  056%=      5-min Rain = 0
KPG1 101129Z 03008KT 25/16 A3006 RMK A01 T02510157  RH  056%=      5-min Rain = 0
KPG1 101130Z 03010KT 25/16 A3006 RMK A01 T02500157  RH  056%=      5-min Rain = 0
KPG1 101131Z 02008KT 25/16 A3006 RMK A01 T02490157  RH  057%=      5-min Rain = 0
KPG1 101132Z 02009KT 25/16 A3006 RMK A01 T02500157  RH  056%=      5-min Rain = 0
KPG1 101133Z 03009KT 25/16 A3006 RMK A01 T02500158  RH  056%=      5-min Rain = 0
KPG1 101134Z 02008KT 25/16 A3007 RMK A01 T02510158  RH  056%=      5-min Rain = 0
KPG1 101135Z 02008KT 25/16 A3007 RMK A01 T02500157  RH  056%=      5-min Rain = 0
KPG1 101136Z 02009KT 25/16 A3007 RMK A01 T02500157  RH  056%=      5-min Rain = 0
KPG1 101137Z 02009KT 25/16 A3007 RMK A01 T02500158  RH  056%=      5-min Rain = 0
KPG1 101138Z 02010KT 25/16 A3007 RMK A01 T02510157  RH  056%=      5-min Rain = 0
KPG1 101139Z 02011KT 25/16 A3007 RMK A01 T02520158  RH  056%=      5-min Rain = 0
KPG1 101140Z 02009KT 25/16 A3007 RMK A01 T02520158  RH  056%=      5-min Rain = 0
KPG1 101141Z 02009KT 25/16 A3007 RMK A01 T02520157  RH  056%=      5-min Rain = 0
KPG1 101142Z 02009KT 25/16 A3007 RMK A01 T02520157  RH  056%=      5-min Rain = 0
KPG1 101143Z 02010KT 25/16 A3007 RMK A01 T02510158  RH  056%=      5-min Rain = 0
KPG1 101144Z 02008KT 25/16 A3007 RMK A01 T02510157  RH  056%=      5-min Rain = 0
KPG1 101145Z 02008KT 25/16 A3007 RMK A01 T02510157  RH  056%=      5-min Rain = 0
KPG1 101146Z 02008KT 25/16 A3007 RMK A01 T02500157  RH  056%=      5-min Rain = 0
KPG1 101147Z 02010KT 25/16 A3007 RMK A01 T02500157  RH  056%=      5-min Rain = 0
KPG1 101148Z 02010KT 25/16 A3007 RMK A01 T02510158  RH  056%=      5-min Rain = 0
KPG1 101149Z 02009KT 25/16 A3007 RMK A01 T02520157  RH  056%=      5-min Rain = 0
KPG1 101150Z 01010KT 25/16 A3007 RMK A01 T02520158  RH  056%=      5-min Rain = 0
KPG1 101151Z 01009KT 25/16 A3007 RMK A01 T02520158  RH  056%=      5-min Rain = 0
KPG1 101152Z 02009KT 25/16 A3007 RMK A01 T02520158  RH  056%=      5-min Rain = 0
KPG1 101153Z 02009KT 25/16 A3007 RMK A01 T02520158  RH  056%=      5-min Rain = 0
KPG1 101154Z 02009KT 25/16 A3007 RMK A01 T02520157  RH  056%=      5-min Rain = 0
KPG1 101155Z 02009KT 25/16 A3007 RMK A01 T02520158  RH  056%=      5-min Rain = 0
KPG1 101156Z 02009KT 25/16 A3007 RMK A01 T02520158  RH  056%=      5-min Rain = 0
KPG1 101157Z 02008KT 25/16 A3007 RMK A01 T02520157  RH  056%=      5-min Rain = 0
KPG1 101158Z 02009KT 25/16 A3007 RMK A01 T02510157  RH  056%=      5-min Rain = 0
KPG1 101159Z 03008KT 25/16 A3007 RMK A01 T02500157  RH  056%=      5-min Rain = 0
KPG1 101200Z 03008KT 25/16 A3007 RMK A01 T02500157  RH  056%=      5-min Rain = 0
KPG1 101201Z 02008KT 25/16 A3007 RMK A01 T02480157  RH  057%=      5-min Rain = 0
KPG1 101202Z 02009KT 25/16 A3007 RMK A01 T02470157  RH  057%=      5-min Rain = 0
KPG1 101203Z 03010KT 25/16 A3007 RMK A01 T02470157  RH  057%=      5-min Rain = 0
KPG1 101204Z 03009KT 25/16 A3007 RMK A01 T02460157  RH  057%=      5-min Rain = 0
KPG1 101205Z 03010KT 25/16 A3007 RMK A01 T02460157  RH  058%=      5-min Rain = 0
KPG1 101206Z 03009KT 25/16 A3007 RMK A01 T02460157  RH  058%=      5-min Rain = 0
KPG1 101207Z 03008KT 25/16 A3007 RMK A01 T02460157  RH  058%=      5-min Rain = 0
KPG1 101208Z 03009KT 25/16 A3007 RMK A01 T02460157  RH  058%=      5-min Rain = 0
KPG1 101209Z 02009KT 25/16 A3007 RMK A01 T02460157  RH  058%=      5-min Rain = 0
KPG1 101210Z 02009KT 25/16 A3007 RMK A01 T02460157  RH  058%=      5-min Rain = 0
KPG1 101211Z 02009KT 25/16 A3007 RMK A01 T02460157  RH  058%=      5-min Rain = 0
KPG1 101212Z 02008KT 25/16 A3007 RMK A01 T02460157  RH  058%=      5-min Rain = 0
KPG1 101213Z 02009KT 25/16 A3007 RMK A01 T02470157  RH  058%=      5-min Rain = 0
KPG1 101214Z 02010KT 25/16 A3007 RMK A01 T02470157  RH  057%=      5-min Rain = 0
KPG1 101215Z 02009KT 25/16 A3007 RMK A01 T02490158  RH  057%=      5-min Rain = 0
KPG1 101216Z 02010KT 25/16 A3007 RMK A01 T02500158  RH  057%=      5-min Rain = 0
KPG1 101217Z 02009KT 25/16 A3008 RMK A01 T02500158  RH  056%=      5-min Rain = 0
KPG1 101218Z 02009KT 25/16 A3008 RMK A01 T02510158  RH  056%=      5-min Rain = 0
KPG1 101219Z 02009KT 25/16 A3008 RMK A01 T02510157  RH  056%=      5-min Rain = 0
KPG1 101220Z 02008KT 25/16 A3008 RMK A01 T02510157  RH  056%=      5-min Rain = 0
KPG1 101221Z 02008KT 25/16 A3008 RMK A01 T02510158  RH  056%=      5-min Rain = 0
KPG1 101222Z 03007KT 25/16 A3008 RMK A01 T02500157  RH  056%=      5-min Rain = 0
KPG1 101223Z 03007KT 25/16 A3008 RMK A01 T02490157  RH  057%=      5-min Rain = 0
KPG1 101224Z 03008KT 25/16 A3008 RMK A01 T02470157  RH  057%=      5-min Rain = 0
KPG1 101225Z 03008KT 25/16 A3008 RMK A01 T02460157  RH  057%=      5-min Rain = 0
KPG1 101226Z 03008KT 25/16 A3008 RMK A01 T02460157  RH  058%=      5-min Rain = 0
KPG1 101227Z 03008KT 25/16 A3008 RMK A01 T02460157  RH  058%=      5-min Rain = 0
KPG1 101228Z 03008KT 25/16 A3008 RMK A01 T02460157  RH  058%=      5-min Rain = 0
KPG1 101229Z 03008KT 25/16 A3008 RMK A01 T02460157  RH  058%=      5-min Rain = 0
KPG1 101230Z 03008KT 25/16 A3008 RMK A01 T02460157  RH  058%=      5-min Rain = 0
KPG1 101231Z 03008KT 25/16 A3008 RMK A01 T02460157  RH  058%=      5-min Rain = 0
KPG1 101232Z 03007KT 25/16 A3008 RMK A01 T02460157  RH  058%=      5-min Rain = 0
KPG1 101233Z 03008KT 25/16 A3008 RMK A01 T02470157  RH  058%=      5-min Rain = 0
KPG1 101234Z 03007KT 25/16 A3008 RMK A01 T02460157  RH  058%=      5-min Rain = 0
KPG1 101235Z 03007KT 25/16 A3008 RMK A01 T02460157  RH  058%=      5-min Rain = 0
KPG1 101236Z 03007KT 25/16 A3008 RMK A01 T02460157  RH  058%=      5-min Rain = 0
KPG1 101237Z 04007KT 25/16 A3008 RMK A01 T02460157  RH  058%=      5-min Rain = 0
KPG1 101238Z 05006KT 25/16 A3008 RMK A01 T02460158  RH  058%=      5-min Rain = 0
KPG1 101239Z 04006KT 25/16 A3008 RMK A01 T02460158  RH  058%=      5-min Rain = 0
KPG1 101240Z 05006KT 25/16 A3008 RMK A01 T02470158  RH  058%=      5-min Rain = 0
KPG1 101241Z 05007KT 25/16 A3008 RMK A01 T02470158  RH  058%=      5-min Rain = 0
KPG1 101242Z 05007KT 25/16 A3008 RMK A01 T02470158  RH  057%=      5-min Rain = 0
KPG1 101243Z 05007KT 25/16 A3008 RMK A01 T02480158  RH  057%=      5-min Rain = 0
KPG1 101244Z 05008KT 25/16 A3008 RMK A01 T02480158  RH  057%=      5-min Rain = 0
KPG1 101245Z 05008KT 25/16 A3008 RMK A01 T02500158  RH  057%=      5-min Rain = 0
KPG1 101246Z 05008KT 25/16 A3008 RMK A01 T02500158  RH  057%=      5-min Rain = 0
KPG1 101247Z 05009KT 25/16 A3008 RMK A01 T02500158  RH  056%=      5-min Rain = 0
KPG1 101248Z 06009KT 25/16 A3009 RMK A01 T02510158  RH  056%=      5-min Rain = 0
KPG1 101249Z 05008KT 25/16 A3009 RMK A01 T02510158  RH  056%=      5-min Rain = 0
KPG1 101250Z 06009KT 25/16 A3009 RMK A01 T02520158  RH  056%=      5-min Rain = 0
KPG1 101251Z 05009KT 25/16 A3009 RMK A01 T02520158  RH  056%=      5-min Rain = 0
KPG1 101252Z 05008KT 25/16 A3009 RMK A01 T02520158  RH  056%=      5-min Rain = 0
KPG1 101253Z 05008KT 25/16 A3009 RMK A01 T02520158  RH  056%=      5-min Rain = 0
KPG1 101254Z 05008KT 25/16 A3009 RMK A01 T02520158  RH  056%=      5-min Rain = 0
KPG1 101255Z 05008KT 25/16 A3009 RMK A01 T02520158  RH  056%=      5-min Rain = 0
KPG1 101256Z 05008KT 25/16 A3009 RMK A01 T02520158  RH  056%=      5-min Rain = 0
KPG1 101257Z 05008KT 25/16 A3009 RMK A01 T02520158  RH  056%=      5-min Rain = 0
KPG1 101258Z 05008KT 25/16 A3009 RMK A01 T02520158  RH  056%=      5-min Rain = 0
KPG1 101259Z 05008KT 25/16 A3009 RMK A01 T02520158  RH  056%=      5-min Rain = 0
KPG1 101300Z 06008KT 25/16 A3009 RMK A01 T02520158  RH  056%=      5-min Rain = 0
KPG1 101301Z 05008KT 25/16 A3009 RMK A01 T02520158  RH  056%=      5-min Rain = 0
KPG1 101302Z 06008KT 25/16 A3009 RMK A01 T02520158  RH  056%=      5-min Rain = 0
KPG1 101303Z 06007KT 25/16 A3009 RMK A01 T02520158  RH  056%=      5-min Rain = 0
KPG1 101304Z 06007KT 25/16 A3009 RMK A01 T02520158  RH  056%=      5-min Rain = 0
KPG1 101305Z 06007KT 25/16 A3009 RMK A01 T02520158  RH  056%=      5-min Rain = 0
KPG1 101306Z 06006KT 25/16 A3009 RMK A01 T02520158  RH  056%=      5-min Rain = 0
KPG1 101307Z 06006KT 25/16 A3009 RMK A01 T02530158  RH  056%=      5-min Rain = 0
KPG1 101308Z 06008KT 25/16 A3009 RMK A01 T02530158  RH  056%=      5-min Rain = 0
KPG1 101309Z 05006KT 25/16 A3009 RMK A01 T02540158  RH  055%=      5-min Rain = 0
KPG1 101310Z 06007KT 25/16 A3009 RMK A01 T02540158  RH  055%=      5-min Rain = 0
KPG1 101311Z 06006KT 26/16 A3009 RMK A01 T02550158  RH  055%=      5-min Rain = 0
KPG1 101312Z 06007KT 26/16 A3009 RMK A01 T02550158  RH  055%=      5-min Rain = 0
KPG1 101313Z 06007KT 26/16 A3009 RMK A01 T02560158  RH  055%=      5-min Rain = 0
KPG1 101314Z 07007KT 26/16 A3009 RMK A01 T02550158  RH  055%=      5-min Rain = 0
KPG1 101315Z 07008KT 26/16 A3009 RMK A01 T02550158  RH  055%=      5-min Rain = 0
KPG1 101316Z 07008KT 26/16 A3009 RMK A01 T02550158  RH  055%=      5-min Rain = 0
KPG1 101317Z 06008KT 25/16 A3009 RMK A01 T02540158  RH  055%=      5-min Rain = 0
KPG1 101318Z 06007KT 25/16 A3009 RMK A01 T02540158  RH  055%=      5-min Rain = 0
KPG1 101319Z 05006KT 25/16 A3009 RMK A01 T02540158  RH  055%=      5-min Rain = 0
KPG1 101320Z 06007KT 25/16 A3009 RMK A01 T02540158  RH  055%=      5-min Rain = 0
KPG1 101321Z 06008KT 26/16 A3009 RMK A01 T02550159  RH  055%=      5-min Rain = 0
KPG1 101322Z 06007KT 26/16 A3009 RMK A01 T02560159  RH  055%=      5-min Rain = 0
KPG1 101323Z 07009KT 26/16 A3009 RMK A01 T02560159  RH  055%=      5-min Rain = 0
KPG1 101324Z 07010KT 26/16 A3009 RMK A01 T02560159  RH  055%=      5-min Rain = 0
KPG1 101325Z 06009KT 26/16 A3009 RMK A01 T02550158  RH  055%=      5-min Rain = 0
KPG1 101326Z 07010KT 26/16 A3009 RMK A01 T02550158  RH  055%=      5-min Rain = 0
KPG1 101327Z 07010KT 25/16 A3009 RMK A01 T02540158  RH  055%=      5-min Rain = 0
KPG1 101328Z 06009KT 26/16 A3009 RMK A01 T02550158  RH  055%=      5-min Rain = 0
KPG1 101329Z 07009KT 25/16 A3009 RMK A01 T02540158  RH  055%=      5-min Rain = 0
KPG1 101330Z 07009KT 26/16 A3009 RMK A01 T02550158  RH  055%=      5-min Rain = 0
KPG1 101331Z 07009KT 26/16 A3009 RMK A01 T02560158  RH  055%=      5-min Rain = 0
KPG1 101332Z 07009KT 26/16 A3009 RMK A01 T02560158  RH  055%=      5-min Rain = 0
KPG1 101333Z 07009KT 26/16 A3009 RMK A01 T02570158  RH  055%=      5-min Rain = 0
KPG1 101334Z 07009KT 26/16 A3009 RMK A01 T02570158  RH  054%=      5-min Rain = 0
KPG1 101335Z 07007KT 26/16 A301 RMK A01 T02570158  RH  054%=      5-min Rain = 0
KPG1 101336Z 07008KT 26/16 A301 RMK A01 T02580159  RH  054%=      5-min Rain = 0
KPG1 101337Z 07008KT 26/16 A301 RMK A01 T02590158  RH  054%=      5-min Rain = 0
KPG1 101338Z 05007KT 26/16 A301 RMK A01 T02590158  RH  054%=      5-min Rain = 0
KPG1 101339Z 06008KT 26/16 A301 RMK A01 T02600159  RH  053%=      5-min Rain = 0
KPG1 101340Z 05008KT 26/16 A301 RMK A01 T02610158  RH  053%=      5-min Rain = 0
KPG1 101341Z 05009KT 26/16 A301 RMK A01 T02610158  RH  053%=      5-min Rain = 0
KPG1 101342Z 05009KT 26/16 A301 RMK A01 T02600158  RH  053%=      5-min Rain = 0
KPG1 101343Z 06008KT 26/16 A301 RMK A01 T02600158  RH  053%=      5-min Rain = 0
KPG1 101344Z 06007KT 26/16 A301 RMK A01 T02600158  RH  053%=      5-min Rain = 0
KPG1 101345Z 06008KT 26/16 A301 RMK A01 T02610159  RH  053%=      5-min Rain = 0
KPG1 101346Z 05008KT 26/16 A301 RMK A01 T02620158  RH  053%=      5-min Rain = 0
KPG1 101347Z 06009KT 26/16 A301 RMK A01 T02610158  RH  053%=      5-min Rain = 0
KPG1 101348Z 06008KT 26/16 A301 RMK A01 T02610158  RH  053%=      5-min Rain = 0
KPG1 101349Z 06008KT 26/16 A301 RMK A01 T02610158  RH  053%=      5-min Rain = 0
KPG1 101350Z 06009KT 26/16 A301 RMK A01 T02610158  RH  053%=      5-min Rain = 0
KPG1 101351Z 06009KT 26/16 A301 RMK A01 T02620158  RH  053%=      5-min Rain = 0
KPG1 101352Z 06009KT 26/16 A301 RMK A01 T02620157  RH  053%=      5-min Rain = 0
KPG1 101353Z 06009KT 26/16 A301 RMK A01 T02620157  RH  053%=      5-min Rain = 0
KPG1 101354Z 06008KT 26/16 A301 RMK A01 T02620158  RH  053%=      5-min Rain = 0
KPG1 101355Z 06009KT 26/16 A301 RMK A01 T02630158  RH  052%=      5-min Rain = 0
KPG1 101356Z 06010KT 26/16 A301 RMK A01 T02630158  RH  052%=      5-min Rain = 0
KPG1 101357Z 07009KT 26/16 A301 RMK A01 T02630157  RH  052%=      5-min Rain = 0
KPG1 101358Z 07009KT 26/16 A301 RMK A01 T02630157  RH  052%=      5-min Rain = 0
KPG1 101359Z 06009KT 26/16 A301 RMK A01 T02620158  RH  052%=      5-min Rain = 0
KPG1 101400Z 06010KT 26/16 A301 RMK A01 T02630158  RH  052%=      5-min Rain = 0
KPG1 101401Z 06010KT 26/16 A301 RMK A01 T02630157  RH  052%=      5-min Rain = 0
KPG1 101402Z 06009KT 26/16 A301 RMK A01 T02640158  RH  052%=      5-min Rain = 0
KPG1 101403Z 06008KT 26/16 A3011 RMK A01 T02640158  RH  052%=      5-min Rain = 0
KPG1 101404Z 06009KT 27/16 A3011 RMK A01 T02650158  RH  052%=      5-min Rain = 0
KPG1 101405Z 06009KT 27/16 A3011 RMK A01 T02650158  RH  052%=      5-min Rain = 0
KPG1 101406Z 07007KT 26/16 A3011 RMK A01 T02640158  RH  052%=      5-min Rain = 0
KPG1 101407Z 06008KT 27/16 A3011 RMK A01 T02670159  RH  052%=      5-min Rain = 0
KPG1 101408Z 06009KT 27/16 A3011 RMK A01 T02680159  RH  051%=      5-min Rain = 0
KPG1 101409Z 06008KT 27/16 A3011 RMK A01 T02670158  RH  051%=      5-min Rain = 0
KPG1 101410Z 07007KT 27/16 A3011 RMK A01 T02660158  RH  051%=      5-min Rain = 0
KPG1 101411Z 06008KT 27/16 A3011 RMK A01 T02660159  RH  052%=      5-min Rain = 0
KPG1 101412Z 06007KT 27/16 A3011 RMK A01 T02670159  RH  051%=      5-min Rain = 0
KPG1 101413Z 06006KT 27/16 A3011 RMK A01 T02680159  RH  051%=      5-min Rain = 0
KPG1 101414Z 06006KT 27/16 A3011 RMK A01 T02700160  RH  051%=      5-min Rain = 0
KPG1 101415Z 06007KT 27/16 A3011 RMK A01 T02710160  RH  050%=      5-min Rain = 0
KPG1 101416Z 06007KT 27/16 A3011 RMK A01 T02710159  RH  050%=      5-min Rain = 0
KPG1 101417Z 03005KT 27/16 A3011 RMK A01 T02710160  RH  050%=      5-min Rain = 0
KPG1 101418Z 04005KT 27/16 A3011 RMK A01 T02730159  RH  050%=      5-min Rain = 0
KPG1 101419Z 06007KT 27/16 A3011 RMK A01 T02720159  RH  050%=      5-min Rain = 0
KPG1 101420Z 06006KT 27/16 A3011 RMK A01 T02710159  RH  050%=      5-min Rain = 0
KPG1 101421Z 06007KT 27/16 A3011 RMK A01 T02710160  RH  051%=      5-min Rain = 0
KPG1 101422Z 06007KT 27/16 A3011 RMK A01 T02710159  RH  050%=      5-min Rain = 0
KPG1 101423Z 06006KT 27/16 A3011 RMK A01 T02710159  RH  050%=      5-min Rain = 0
KPG1 101424Z 05005KT 27/16 A3011 RMK A01 T02710159  RH  050%=      5-min Rain = 0
KPG1 101425Z 04006KT 27/16 A3011 RMK A01 T02730160  RH  050%=      5-min Rain = 0
KPG1 101426Z 04008KT 28/16 A3011 RMK A01 T02760159  RH  049%=      5-min Rain = 0
KPG1 101427Z 05005KT 28/16 A3011 RMK A01 T02750159  RH  049%=      5-min Rain = 0
KPG1 101428Z 04008KT 27/16 A3011 RMK A01 T02730158  RH  050%=      5-min Rain = 0
KPG1 101429Z 04008KT 27/16 A3011 RMK A01 T02710158  RH  050%=      5-min Rain = 0
KPG1 101430Z 03005KT 27/16 A3011 RMK A01 T02710158  RH  050%=      5-min Rain = 0
KPG1 101431Z 03007KT 27/16 A3011 RMK A01 T02700158  RH  050%=      5-min Rain = 0
KPG1 101432Z 04006KT 27/16 A3011 RMK A01 T02700158  RH  050%=      5-min Rain = 0
KPG1 101433Z 03006KT 27/16 A3011 RMK A01 T02690159  RH  051%=      5-min Rain = 0
KPG1 101434Z 03005KT 27/16 A3011 RMK A01 T02700159  RH  051%=      5-min Rain = 0
KPG1 101435Z 04007KT 27/16 A3011 RMK A01 T02730160  RH  050%=      5-min Rain = 0
KPG1 101436Z 04007KT 27/16 A3011 RMK A01 T02740159  RH  049%=      5-min Rain = 0
KPG1 101437Z 05005KT 27/16 A3011 RMK A01 T02710157  RH  050%=      5-min Rain = 0
KPG1 101438Z 03006KT 27/16 A3011 RMK A01 T02700158  RH  050%=      5-min Rain = 0
KPG1 101439Z 03008KT 27/16 A3011 RMK A01 T02700158  RH  050%=      5-min Rain = 0
KPG1 101440Z 05008KT 27/16 A3011 RMK A01 T02700158  RH  050%=      5-min Rain = 0
KPG1 101441Z 03008KT 27/16 A3011 RMK A01 T02710158  RH  050%=      5-min Rain = 0
KPG1 101442Z 04008KT 27/16 A3011 RMK A01 T02730158  RH  050%=      5-min Rain = 0
KPG1 101443Z 03008KT 27/16 A3011 RMK A01 T02730158  RH  049%=      5-min Rain = 0
KPG1 101444Z 03006KT 27/16 A3011 RMK A01 T02740158  RH  049%=      5-min Rain = 0
KPG1 101445Z 05007KT 27/16 A3011 RMK A01 T02720159  RH  050%=      5-min Rain = 0
KPG1 101446Z 05008KT 27/16 A3011 RMK A01 T02730159  RH  050%=      5-min Rain = 0
KPG1 101447Z 03008KT 27/16 A3011 RMK A01 T02730159  RH  050%=      5-min Rain = 0
KPG1 101448Z 05005KT 27/16 A3011 RMK A01 T02710158  RH  050%=      5-min Rain = 0
KPG1 101449Z 06005KT 27/16 A3011 RMK A01 T02700158  RH  050%=      5-min Rain = 0
KPG1 101450Z 05007KT 27/16 A3011 RMK A01 T02720159  RH  050%=      5-min Rain = 0
KPG1 101451Z 04006KT 27/16 A3011 RMK A01 T02740160  RH  050%=      5-min Rain = 0
KPG1 101452Z 05007KT 28/16 A3011 RMK A01 T02750160  RH  049%=      5-min Rain = 0
KPG1 101453Z 03008KT 28/16 A3011 RMK A01 T02750159  RH  049%=      5-min Rain = 0
KPG1 101454Z 03007KT 28/16 A3011 RMK A01 T02760159  RH  049%=      5-min Rain = 0
KPG1 101455Z 03008KT 28/16 A3011 RMK A01 T02750159  RH  049%=      5-min Rain = 0
KPG1 101456Z 02007KT 28/16 A3011 RMK A01 T02750158  RH  049%=      5-min Rain = 0
KPG1 101457Z 05006KT 28/16 A3011 RMK A01 T02750159  RH  049%=      5-min Rain = 0
KPG1 101458Z 05008KT 28/16 A3011 RMK A01 T02760159  RH  049%=      5-min Rain = 0
KPG1 101459Z 05008KT 28/16 A3011 RMK A01 T02760159  RH  049%=      5-min Rain = 0
KPG1 101500Z 05008KT 28/16 A3011 RMK A01 T02750158  RH  049%=      5-min Rain = 0
KPG1 101501Z 04006KT 27/16 A3011 RMK A01 T02740159  RH  049%=      5-min Rain = 0
KPG1 101502Z 05005KT 27/16 A3011 RMK A01 T02740159  RH  049%=      5-min Rain = 0
KPG1 101503Z 04004KT 28/16 A3011 RMK A01 T02770159  RH  049%=      5-min Rain = 0
KPG1 101504Z 05005KT 28/16 A3011 RMK A01 T02790160  RH  048%=      5-min Rain = 0
KPG1 101505Z 04007KT 28/16 A3011 RMK A01 T02820160  RH  047%=      5-min Rain = 0
KPG1 101506Z 01006KT 28/16 A3011 RMK A01 T02830160  RH  047%=      5-min Rain = 0
KPG1 101507Z 03006KT 28/16 A3011 RMK A01 T02830159  RH  047%=      5-min Rain = 0
KPG1 101508Z 03006KT 28/16 A3011 RMK A01 T02820159  RH  047%=      5-min Rain = 0
KPG1 101509Z 05006KT 28/16 A3011 RMK A01 T02830159  RH  047%=      5-min Rain = 0
KPG1 101510Z 04007KT 28/16 A3011 RMK A01 T02810159  RH  047%=      5-min Rain = 0
KPG1 101511Z 04008KT 28/16 A3011 RMK A01 T02810159  RH  048%=      5-min Rain = 0
KPG1 101512Z 04007KT 28/16 A3011 RMK A01 T02800159  RH  048%=      5-min Rain = 0
KPG1 101513Z 05007KT 28/16 A3011 RMK A01 T02800159  RH  048%=      5-min Rain = 0
KPG1 101514Z 06006KT 28/16 A3011 RMK A01 T02810159  RH  047%=      5-min Rain = 0
KPG1 101515Z 03007KT 28/16 A3011 RMK A01 T02820159  RH  047%=      5-min Rain = 0
KPG1 101516Z 03005KT 28/16 A3011 RMK A01 T02820159  RH  047%=      5-min Rain = 0
KPG1 101517Z 05005KT 28/16 A3011 RMK A01 T02820159  RH  047%=      5-min Rain = 0
KPG1 101518Z 05005KT 28/16 A3011 RMK A01 T02820159  RH  047%=      5-min Rain = 0
KPG1 101519Z 05005KT 28/16 A3011 RMK A01 T02830160  RH  047%=      5-min Rain = 0
KPG1 101520Z 03008KT 29/16 A3011 RMK A01 T02850160  RH  047%=      5-min Rain = 0
KPG1 101521Z 03007KT 29/16 A3011 RMK A01 T02850159  RH  046%=      5-min Rain = 0
KPG1 101522Z 03006KT 28/16 A3011 RMK A01 T02830159  RH  047%=      5-min Rain = 0
KPG1 101523Z 06006KT 28/16 A3011 RMK A01 T02840159  RH  047%=      5-min Rain = 0
KPG1 101524Z 07006KT 28/16 A3011 RMK A01 T02840159  RH  047%=      5-min Rain = 0
KPG1 101525Z 07006KT 29/16 A3011 RMK A01 T02860160  RH  046%=      5-min Rain = 0
KPG1 101526Z 03008KT 29/16 A3011 RMK A01 T02880160  RH  046%=      5-min Rain = 0
KPG1 101527Z 05006KT 29/16 A3011 RMK A01 T02880159  RH  046%=      5-min Rain = 0
KPG1 101528Z 05006KT 29/16 A3011 RMK A01 T02880159  RH  046%=      5-min Rain = 0
KPG1 101529Z 04007KT 29/16 A3011 RMK A01 T02900160  RH  045%=      5-min Rain = 0
KPG1 101530Z 03009KT 29/16 A3011 RMK A01 T02920159  RH  044%=      5-min Rain = 0
KPG1 101531Z 02007KT 29/16 A3011 RMK A01 T02920157  RH  044%=      5-min Rain = 0
KPG1 101532Z 02004KT 29/16 A3011 RMK A01 T02910158  RH  044%=      5-min Rain = 0
KPG1 101533Z 03009KT 29/16 A3011 RMK A01 T02920157  RH  044%=      5-min Rain = 0
KPG1 101534Z 02008KT 29/16 A3011 RMK A01 T02940156  RH  043%=      5-min Rain = 0
KPG1 101535Z 03008KT 30/16 A3011 RMK A01 T02960158  RH  043%=      5-min Rain = 0
KPG1 101536Z 03009KT 30/16 A3011 RMK A01 T02990156  RH  042%=      5-min Rain = 0
KPG1 101537Z 04008KT 30/16 A3011 RMK A01 T02990155  RH  042%=      5-min Rain = 0
KPG1 101538Z 03007KT 30/16 A3011 RMK A01 T02990155  RH  042%=      5-min Rain = 0
KPG1 101539Z 02010KT 30/16 A3011 RMK A01 T03000157  RH  042%=      5-min Rain = 0
KPG1 101540Z 02008KT 30/16 A3011 RMK A01 T03000157  RH  042%=      5-min Rain = 0
KPG1 101541Z 04007KT 30/16 A3011 RMK A01 T02990157  RH  042%=      5-min Rain = 0
KPG1 101542Z 03009KT 30/16 A3011 RMK A01 T03000157  RH  042%=      5-min Rain = 0
KPG1 101543Z 35007KT 30/16 A3011 RMK A01 T03020157  RH  041%=      5-min Rain = 0
KPG1 101544Z 34007KT 30/16 A3011 RMK A01 T03030156  RH  041%=      5-min Rain = 0
KPG1 101545Z 33006KT 30/16 A3011 RMK A01 T03010155  RH  041%=      5-min Rain = 0
KPG1 101546Z 34004KT 30/16 A3011 RMK A01 T02990156  RH  042%=      5-min Rain = 0
KPG1 101547Z 34006KT 30/16 A3011 RMK A01 T03010156  RH  042%=      5-min Rain = 0
KPG1 101548Z 03009KT 30/16 A3011 RMK A01 T03010156  RH  042%=      5-min Rain = 0
KPG1 101549Z 03008KT 30/16 A3011 RMK A01 T03030157  RH  041%=      5-min Rain = 0
KPG1 101550Z 04006KT 30/16 A3011 RMK A01 T03040157  RH  041%=      5-min Rain = 0
KPG1 101551Z 02010G15KT 31/16 A3011 RMK A01 T03070158  RH  041%=      5-min Rain = 0
KPG1 101552Z 00011KT 31/16 A3011 RMK A01 T03070157  RH  040%=      5-min Rain = 0
KPG1 101553Z 00006KT 31/16 A3011 RMK A01 T03070156  RH  040%=      5-min Rain = 0
KPG1 101554Z 36005KT 31/16 A3011 RMK A01 T03050156  RH  041%=      5-min Rain = 0
KPG1 101555Z 35008KT 30/16 A3011 RMK A01 T03040157  RH  041%=      5-min Rain = 0
KPG1 101556Z 34008KT 31/16 A3011 RMK A01 T03050156  RH  041%=      5-min Rain = 0
KPG1 101557Z 04004KT 30/16 A3011 RMK A01 T03040156  RH  041%=      5-min Rain = 0
KPG1 101558Z 35006KT 31/16 A3011 RMK A01 T03060157  RH  040%=      5-min Rain = 0
KPG1 101559Z 02008KT 31/16 A3011 RMK A01 T03070155  RH  040%=      5-min Rain = 0
KPG1 101600Z 02010KT 31/15 A3011 RMK A01 T03070154  RH  040%=      5-min Rain = 0
KPG1 101601Z 01006KT 31/15 A3011 RMK A01 T03060154  RH  040%=      5-min Rain = 0
KPG1 101602Z 34005KT 31/15 A3011 RMK A01 T03060154  RH  040%=      5-min Rain = 0
KPG1 101603Z 02007KT 31/15 A3011 RMK A01 T03050154  RH  040%=      5-min Rain = 0
KPG1 101604Z 03007KT 31/16 A3011 RMK A01 T03050155  RH  040%=      5-min Rain = 0
KPG1 101605Z 05008KT 31/16 A3011 RMK A01 T03090157  RH  040%=      5-min Rain = 0
KPG1 101606Z 06006KT 31/16 A3011 RMK A01 T03110156  RH  039%=      5-min Rain = 0
KPG1 101607Z 06006KT 31/15 A3011 RMK A01 T03100154  RH  039%=      5-min Rain = 0
KPG1 101608Z 05007KT 31/15 A3011 RMK A01 T03110154  RH  039%=      5-min Rain = 0
KPG1 101609Z 05008KT 31/15 A3011 RMK A01 T03120152  RH  038%=      5-min Rain = 0
KPG1 101610Z 05008KT 31/15 A3011 RMK A01 T03090151  RH  038%=      5-min Rain = 0
KPG1 101611Z 05009KT 31/15 A3011 RMK A01 T03110153  RH  038%=      5-min Rain = 0
KPG1 101612Z 05008KT 31/15 A3011 RMK A01 T03140153  RH  038%=      5-min Rain = 0
KPG1 101613Z 03009KT 32/15 A3011 RMK A01 T03160154  RH  037%=      5-min Rain = 0
KPG1 101614Z 04009KT 32/15 A3011 RMK A01 T03150152  RH  037%=      5-min Rain = 0
KPG1 101615Z 07009KT 31/15 A3011 RMK A01 T03130152  RH  038%=      5-min Rain = 0
KPG1 101616Z 06006KT 31/15 A3011 RMK A01 T03130152  RH  038%=      5-min Rain = 0
KPG1 101617Z 03008KT 32/15 A3011 RMK A01 T03150153  RH  037%=      5-min Rain = 0
KPG1 101618Z 02010G15KT 32/15 A3011 RMK A01 T03170152  RH  037%=      5-min Rain = 0
KPG1 101619Z 02009KT 31/15 A3011 RMK A01 T03140151  RH  037%=      5-min Rain = 0
KPG1 101620Z 01005KT 31/15 A3011 RMK A01 T03130152  RH  038%=      5-min Rain = 0
KPG1 101621Z 02007KT 31/15 A3011 RMK A01 T03110151  RH  038%=      5-min Rain = 0
KPG1 101622Z 01008KT 31/15 A3011 RMK A01 T03100151  RH  038%=      5-min Rain = 0
KPG1 101623Z 36009KT 31/15 A3011 RMK A01 T03120151  RH  038%=      5-min Rain = 0
KPG1 101624Z 01004KT 31/15 A3011 RMK A01 T03120151  RH  038%=      5-min Rain = 0
KPG1 101625Z 34005KT 31/15 A3011 RMK A01 T03130152  RH  038%=      5-min Rain = 0
KPG1 101626Z 01005KT 32/15 A301 RMK A01 T03150152  RH  037%=      5-min Rain = 0
KPG1 101627Z 36004KT 32/15 A301 RMK A01 T03150152  RH  037%=      5-min Rain = 0
KPG1 101628Z 31003KT 32/15 A301 RMK A01 T03170151  RH  037%=      5-min Rain = 0
KPG1 101629Z 34004KT 32/15 A301 RMK A01 T03200152  RH  036%=      5-min Rain = 0
KPG1 101630Z 02004KT 32/15 A301 RMK A01 T03200151  RH  036%=      5-min Rain = 0
KPG1 101631Z 03006KT 32/15 A301 RMK A01 T03180150  RH  036%=      5-min Rain = 0
KPG1 101632Z 03010KT 32/15 A301 RMK A01 T03190149  RH  036%=      5-min Rain = 0
KPG1 101633Z 03009KT 32/15 A301 RMK A01 T03190150  RH  036%=      5-min Rain = 0
KPG1 101634Z 03006KT 32/15 A301 RMK A01 T03190149  RH  036%=      5-min Rain = 0
KPG1 101635Z 02006KT 32/15 A301 RMK A01 T03180148  RH  036%=      5-min Rain = 0
KPG1 101636Z 36006KT 32/15 A301 RMK A01 T03180148  RH  036%=      5-min Rain = 0
KPG1 101637Z 03006KT 32/15 A301 RMK A01 T03180148  RH  036%=      5-min Rain = 0
KPG1 101638Z 02006KT 32/15 A301 RMK A01 T03200149  RH  035%=      5-min Rain = 0
KPG1 101639Z 34006KT 32/15 A301 RMK A01 T03210149  RH  035%=      5-min Rain = 0
KPG1 101640Z 00004KT 32/15 A301 RMK A01 T03190151  RH  036%=      5-min Rain = 0
KPG1 101641Z 02006KT 32/15 A301 RMK A01 T03200152  RH  036%=      5-min Rain = 0
KPG1 101642Z 03007KT 32/15 A301 RMK A01 T03210152  RH  036%=      5-min Rain = 0
KPG1 101643Z 03005KT 32/15 A301 RMK A01 T03240152  RH  035%=      5-min Rain = 0
KPG1 101644Z 03004KT 32/15 A301 RMK A01 T03210150  RH  036%=      5-min Rain = 0
KPG1 101645Z 03006KT 32/15 A301 RMK A01 T03200151  RH  036%=      5-min Rain = 0
KPG1 101646Z 04008KT 32/15 A301 RMK A01 T03210151  RH  036%=      5-min Rain = 0
KPG1 101647Z 04009KT 32/15 A301 RMK A01 T03220150  RH  035%=      5-min Rain = 0
KPG1 101648Z 06011KT 32/15 A301 RMK A01 T03230147  RH  035%=      5-min Rain = 0
KPG1 101649Z 07009KT 32/15 A301 RMK A01 T03200147  RH  035%=      5-min Rain = 0
KPG1 101650Z 06009KT 32/15 A301 RMK A01 T03190148  RH  035%=      5-min Rain = 0
KPG1 101651Z 07008KT 32/15 A301 RMK A01 T03180148  RH  036%=      5-min Rain = 0
KPG1 101652Z 06008KT 32/15 A301 RMK A01 T03160147  RH  036%=      5-min Rain = 0
KPG1 101653Z 09005KT 32/15 A301 RMK A01 T03160148  RH  036%=      5-min Rain = 0
KPG1 101654Z 10005KT 32/15 A301 RMK A01 T03150149  RH  037%=      5-min Rain = 0
KPG1 101655Z 09004KT 32/15 A301 RMK A01 T03190152  RH  037%=      5-min Rain = 0
KPG1 101656Z 03004KT 33/16 A301 RMK A01 T03270155  RH  035%=      5-min Rain = 0
KPG1 101657Z 00005KT 33/15 A301 RMK A01 T03310152  RH  034%=      5-min Rain = 0
KPG1 101658Z 02006KT 33/15 A301 RMK A01 T03280151  RH  035%=      5-min Rain = 0
KPG1 101659Z 02007KT 33/15 A301 RMK A01 T03260152  RH  035%=      5-min Rain = 0
KPG1 101700Z 03007KT 33/15 A301 RMK A01 T03260151  RH  035%=      5-min Rain = 0
KPG1 101701Z 02005KT 32/15 A301 RMK A01 T03220150  RH  035%=      5-min Rain = 0
KPG1 101702Z 05009KT 32/15 A301 RMK A01 T03200151  RH  036%=      5-min Rain = 0
KPG1 101703Z 04008KT 32/15 A301 RMK A01 T03230152  RH  036%=      5-min Rain = 0
KPG1 101704Z 02006KT 32/15 A301 RMK A01 T03230151  RH  035%=      5-min Rain = 0
KPG1 101705Z 03009KT 32/15 A301 RMK A01 T03230151  RH  036%=      5-min Rain = 0
KPG1 101706Z 05009KT 33/15 A301 RMK A01 T03250151  RH  035%=      5-min Rain = 0
KPG1 101707Z 05006KT 32/15 A301 RMK A01 T03240151  RH  035%=      5-min Rain = 0
KPG1 101708Z 03006KT 33/15 A301 RMK A01 T03280153  RH  035%=      5-min Rain = 0
KPG1 101709Z 01005KT 33/15 A301 RMK A01 T03330153  RH  034%=      5-min Rain = 0
KPG1 101710Z 06006KT 33/15 A301 RMK A01 T03330152  RH  034%=      5-min Rain = 0
KPG1 101711Z 08009KT 33/15 A301 RMK A01 T03330149  RH  033%=      5-min Rain = 0
KPG1 101712Z 07011KT 33/15 A3009 RMK A01 T03290147  RH  033%=      5-min Rain = 0
KPG1 101713Z 07008KT 33/15 A301 RMK A01 T03270146  RH  034%=      5-min Rain = 0
KPG1 101714Z 06007KT 33/15 A3009 RMK A01 T03260146  RH  034%=      5-min Rain = 0
KPG1 101715Z 04008KT 33/15 A3009 RMK A01 T03300149  RH  034%=      5-min Rain = 0
KPG1 101716Z 02013KT 33/15 A3009 RMK A01 T03310149  RH  034%=      5-min Rain = 0
KPG1 101717Z 02010KT 33/15 A3009 RMK A01 T03260148  RH  034%=      5-min Rain = 0
KPG1 101718Z 02007KT 32/15 A3009 RMK A01 T03210148  RH  035%=      5-min Rain = 0
KPG1 101719Z 01005KT 32/15 A3009 RMK A01 T03190148  RH  036%=      5-min Rain = 0
KPG1 101720Z 03004KT 32/15 A3009 RMK A01 T03170148  RH  036%=      5-min Rain = 0
KPG1 101721Z 03005KT 32/15 A3009 RMK A01 T03210150  RH  036%=      5-min Rain = 0
KPG1 101722Z 02008KT 32/15 A3009 RMK A01 T03230151  RH  035%=      5-min Rain = 0
KPG1 101723Z 02012KT 33/15 A3009 RMK A01 T03250150  RH  035%=      5-min Rain = 0
KPG1 101724Z 03013KT 33/15 A3009 RMK A01 T03250150  RH  035%=      5-min Rain = 0
KPG1 101725Z 04009KT 32/15 A3009 RMK A01 T03230149  RH  035%=      5-min Rain = 0
KPG1 101726Z 02006KT 32/15 A3009 RMK A01 T03200148  RH  035%=      5-min Rain = 0
KPG1 101727Z 02004KT 32/15 A3009 RMK A01 T03190148  RH  036%=      5-min Rain = 0
KPG1 101728Z 05003KT 32/15 A3009 RMK A01 T03190148  RH  036%=      5-min Rain = 0
KPG1 101729Z 10006KT 32/15 A3009 RMK A01 T03200148  RH  035%=      5-min Rain = 0
KPG1 101730Z 09010KT 32/15 A3009 RMK A01 T03240150  RH  035%=      5-min Rain = 0
KPG1 101731Z 10008KT 33/15 A3009 RMK A01 T03260149  RH  034%=      5-min Rain = 0
KPG1 101732Z 11007KT 33/15 A3009 RMK A01 T03270149  RH  034%=      5-min Rain = 0
KPG1 101733Z 09006KT 33/15 A3009 RMK A01 T03300151  RH  034%=      5-min Rain = 0
KPG1 101734Z 04007KT 33/15 A3008 RMK A01 T03340150  RH  033%=      5-min Rain = 0
KPG1 101735Z 01008KT 34/15 A3008 RMK A01 T03350150  RH  033%=      5-min Rain = 0
KPG1 101736Z 01006KT 33/15 A3008 RMK A01 T03310148  RH  033%=      5-min Rain = 0
KPG1 101737Z 02012KT 33/15 A3008 RMK A01 T03270148  RH  034%=      5-min Rain = 0
KPG1 101738Z 03009KT 33/15 A3008 RMK A01 T03260148  RH  034%=      5-min Rain = 0
KPG1 101739Z 02009KT 33/15 A3008 RMK A01 T03250148  RH  034%=      5-min Rain = 0
KPG1 101740Z 04008KT 32/15 A3008 RMK A01 T03230148  RH  035%=      5-min Rain = 0
KPG1 101741Z 04007KT 32/15 A3008 RMK A01 T03220148  RH  035%=      5-min Rain = 0
KPG1 101742Z 34007KT 32/15 A3008 RMK A01 T03230148  RH  035%=      5-min Rain = 0
KPG1 101743Z 33004KT 32/15 A3008 RMK A01 T03220147  RH  035%=      5-min Rain = 0
KPG1 101744Z 02005G11KT 32/15 A3008 RMK A01 T03210147  RH  035%=      5-min Rain = 0
KPG1 101745Z 03009KT 32/15 A3008 RMK A01 T03210148  RH  035%=      5-min Rain = 0
KPG1 101746Z 03010KT 32/15 A3008 RMK A01 T03210147  RH  035%=      5-min Rain = 0
KPG1 101747Z 04007KT 32/15 A3008 RMK A01 T03220147  RH  035%=      5-min Rain = 0
KPG1 101748Z 05005KT 32/15 A3008 RMK A01 T03220147  RH  035%=      5-min Rain = 0
KPG1 101749Z 05007KT 32/15 A3008 RMK A01 T03220147  RH  035%=      5-min Rain = 0
KPG1 101750Z 05007KT 32/15 A3008 RMK A01 T03240148  RH  035%=      5-min Rain = 0
KPG1 101751Z 04005KT 32/15 A3008 RMK A01 T03230147  RH  035%=      5-min Rain = 0
KPG1 101752Z 04008KT 32/15 A3008 RMK A01 T03240148  RH  035%=      5-min Rain = 0
KPG1 101753Z 05007KT 32/15 A3008 RMK A01 T03230147  RH  035%=      5-min Rain = 0
KPG1 101754Z 03008KT 32/15 A3008 RMK A01 T03230147  RH  035%=      5-min Rain = 0
KPG1 101755Z 01011KT 32/15 A3008 RMK A01 T03230148  RH  035%=      5-min Rain = 0
KPG1 101756Z 01008KT 32/15 A3008 RMK A01 T03230147  RH  035%=      5-min Rain = 0
KPG1 101757Z 04007G12KT 32/15 A3008 RMK A01 T03200147  RH  035%=      5-min Rain = 0
KPG1 101758Z 05011KT 32/15 A3008 RMK A01 T03210146  RH  035%=      5-min Rain = 0
KPG1 101759Z 04010KT 32/15 A3008 RMK A01 T03200145  RH  035%=      5-min Rain = 0
KPG1 101800Z 02016G26KT 32/15 A3008 RMK A01 T03200147  RH  035%=      5-min Rain = 0
KPG1 101801Z 01017G23KT 32/15 A3008 RMK A01 T03150153  RH  037%=      5-min Rain = 0
KPG1 101802Z 00016G22KT 31/15 A3008 RMK A01 T03080153  RH  039%=      5-min Rain = 0
KPG1 101803Z 00014G20KT 31/16 A3008 RMK A01 T03050156  RH  041%=      5-min Rain = 0
KPG1 101804Z 00023G29KT 30/16 A3008 RMK A01 T03030157  RH  041%=      5-min Rain = 0
KPG1 101805Z 00022KT 30/16 A3007 RMK A01 T02990158  RH  042%=      5-min Rain = 0
KPG1 101806Z 36018G24KT 30/16 A3008 RMK A01 T02990158  RH  043%=      5-min Rain = 0
KPG1 101807Z 00021G26KT 30/16 A3008 RMK A01 T02990157  RH  042%=      5-min Rain = 0
KPG1 101808Z 00019G25KT 29/15 A3008 RMK A01 T02940153  RH  042%=      5-min Rain = 0
KPG1 101809Z 00017KT 29/15 A3008 RMK A01 T02900154  RH  044%=      5-min Rain = 0
KPG1 101810Z 01013KT 29/15 A3008 RMK A01 T02890154  RH  044%=      5-min Rain = 0
KPG1 101811Z 01009KT 29/16 A3008 RMK A01 T02910155  RH  043%=      5-min Rain = 0
KPG1 101812Z 35010KT 30/15 A3008 RMK A01 T02950153  RH  042%=      5-min Rain = 0
KPG1 101813Z 01012KT 30/15 A3007 RMK A01 T02980154  RH  042%=      5-min Rain = 0
KPG1 101814Z 01013KT 30/15 A3007 RMK A01 T02990153  RH  041%=      5-min Rain = 0
KPG1 101815Z 01011KT 30/15 A3007 RMK A01 T02990153  RH  041%=      5-min Rain = 0
KPG1 101816Z 00014KT 30/15 A3007 RMK A01 T02990153  RH  041%=      5-min Rain = 0
KPG1 101817Z 01011KT 30/15 A3007 RMK A01 T02990154  RH  042%=      5-min Rain = 0
KPG1 101818Z 02015KT 30/15 A3007 RMK A01 T02980151  RH  041%=      5-min Rain = 0
KPG1 101819Z 02013KT 30/15 A3007 RMK A01 T02980150  RH  041%=      5-min Rain = 0
KPG1 101820Z 00011KT 30/15 A3007 RMK A01 T02990151  RH  041%=      5-min Rain = 0
KPG1 101821Z 00010KT 30/15 A3007 RMK A01 T02990152  RH  041%=      5-min Rain = 0
KPG1 101822Z 02011KT 30/15 A3007 RMK A01 T02990149  RH  040%=      5-min Rain = 0
KPG1 101823Z 01011KT 30/14 A3007 RMK A01 T02990144  RH  039%=      5-min Rain = 0
KPG1 101824Z 02013KT 30/14 A3007 RMK A01 T03000138  RH  037%=      5-min Rain = 0
KPG1 101825Z 02015KT 30/14 A3007 RMK A01 T03000136  RH  037%=      5-min Rain = 0
KPG1 101826Z 02016KT 30/14 A3007 RMK A01 T02980136  RH  037%=      5-min Rain = 0
KPG1 101827Z 02017KT 30/13 A3007 RMK A01 T02980134  RH  037%=      5-min Rain = 0
KPG1 101828Z 02014KT 30/13 A3007 RMK A01 T02970133  RH  037%=      5-min Rain = 0
KPG1 101829Z 02016KT 29/13 A3007 RMK A01 T02940134  RH  037%=      5-min Rain = 0
KPG1 101830Z 02014KT 29/14 A3007 RMK A01 T02920137  RH  039%=      5-min Rain = 0
KPG1 101831Z 02013KT 29/14 A3007 RMK A01 T02910138  RH  039%=      5-min Rain = 0
KPG1 101832Z 01009KT 29/14 A3007 RMK A01 T02900138  RH  039%=      5-min Rain = 0
KPG1 101833Z 00011KT 29/14 A3007 RMK A01 T02910140  RH  040%=      5-min Rain = 0
KPG1 101834Z 00012KT 29/14 A3007 RMK A01 T02910141  RH  040%=      5-min Rain = 0
KPG1 101835Z 35010G15KT 29/15 A3007 RMK A01 T02910148  RH  042%=      5-min Rain = 0
KPG1 101836Z 35013KT 29/15 A3007 RMK A01 T02900149  RH  042%=      5-min Rain = 0
KPG1 101837Z 36011KT 29/15 A3007 RMK A01 T02880149  RH  043%=      5-min Rain = 0
KPG1 101838Z 35010KT 29/15 A3007 RMK A01 T02860150  RH  043%=      5-min Rain = 0
KPG1 101839Z 36010KT 29/15 A3007 RMK A01 T02860148  RH  043%=      5-min Rain = 0
KPG1 101840Z 35010KT 29/15 A3007 RMK A01 T02870149  RH  043%=      5-min Rain = 0
KPG1 101841Z 35010KT 29/15 A3006 RMK A01 T02890148  RH  042%=      5-min Rain = 0
KPG1 101842Z 35008KT 29/15 A3006 RMK A01 T02900147  RH  042%=      5-min Rain = 0
KPG1 101843Z 34010KT 29/15 A3006 RMK A01 T02910146  RH  041%=      5-min Rain = 0
KPG1 101844Z 34011KT 29/15 A3006 RMK A01 T02920145  RH  041%=      5-min Rain = 0
KPG1 101845Z 35011KT 29/15 A3006 RMK A01 T02930145  RH  040%=      5-min Rain = 0
KPG1 101846Z 35011KT 29/15 A3006 RMK A01 T02930145  RH  041%=      5-min Rain = 0
KPG1 101847Z 34010KT 29/14 A3006 RMK A01 T02940144  RH  040%=      5-min Rain = 0
KPG1 101848Z 34011KT 29/14 A3006 RMK A01 T02940144  RH  040%=      5-min Rain = 0
KPG1 101849Z 35008KT 30/14 A3006 RMK A01 T02950143  RH  040%=      5-min Rain = 0
KPG1 101850Z 01010KT 30/14 A3006 RMK A01 T02970142  RH  039%=      5-min Rain = 0
KPG1 101851Z 00009KT 30/14 A3006 RMK A01 T03000138  RH  037%=      5-min Rain = 0
KPG1 101852Z 00010KT 30/14 A3006 RMK A01 T03010135  RH  036%=      5-min Rain = 0
KPG1 101853Z 01011KT 30/13 A3006 RMK A01 T03010133  RH  036%=      5-min Rain = 0
KPG1 101854Z 01007KT 30/13 A3006 RMK A01 T03010132  RH  035%=      5-min Rain = 0
KPG1 101855Z 02006KT 30/13 A3006 RMK A01 T03020132  RH  035%=      5-min Rain = 0
KPG1 101856Z 00007KT 31/14 A3006 RMK A01 T03050135  RH  035%=      5-min Rain = 0
KPG1 101857Z 02009KT 31/13 A3006 RMK A01 T03090134  RH  034%=      5-min Rain = 0
KPG1 101858Z 03008KT 31/14 A3006 RMK A01 T03090135  RH  035%=      5-min Rain = 0
KPG1 101859Z 02008KT 31/14 A3005 RMK A01 T03080136  RH  035%=      5-min Rain = 0
KPG1 101900Z 02008KT 31/14 A3005 RMK A01 T03110140  RH  035%=      5-min Rain = 0
KPG1 101901Z 02010KT 32/14 A3005 RMK A01 T03150144  RH  035%=      5-min Rain = 0
KPG1 101902Z 02010KT 32/15 A3005 RMK A01 T03160145  RH  035%=      5-min Rain = 0
KPG1 101903Z 01010KT 32/15 A3005 RMK A01 T03190146  RH  035%=      5-min Rain = 0
KPG1 101904Z 01009KT 32/15 A3005 RMK A01 T03190146  RH  035%=      5-min Rain = 0
KPG1 101905Z 01010KT 32/15 A3005 RMK A01 T03210147  RH  035%=      5-min Rain = 0
KPG1 101906Z 03010KT 32/15 A3005 RMK A01 T03180146  RH  035%=      5-min Rain = 0
KPG1 101907Z 02011KT 32/15 A3005 RMK A01 T03170146  RH  035%=      5-min Rain = 0
KPG1 101908Z 02008KT 32/15 A3005 RMK A01 T03160145  RH  035%=      5-min Rain = 0
KPG1 101909Z 04005KT 32/14 A3005 RMK A01 T03160144  RH  035%=      5-min Rain = 0
KPG1 101910Z 03007KT 32/15 A3004 RMK A01 T03190145  RH  035%=      5-min Rain = 0
KPG1 101911Z 05009KT 32/15 A3004 RMK A01 T03220145  RH  034%=      5-min Rain = 0
KPG1 101912Z 02007KT 32/15 A3004 RMK A01 T03220145  RH  034%=      5-min Rain = 0
KPG1 101913Z 03007KT 32/14 A3004 RMK A01 T03220142  RH  034%=      5-min Rain = 0
KPG1 101914Z 05007KT 32/14 A3004 RMK A01 T03210141  RH  034%=      5-min Rain = 0
KPG1 101915Z 05005KT 32/14 A3004 RMK A01 T03210142  RH  034%=      5-min Rain = 0
KPG1 101916Z 07006KT 32/14 A3004 RMK A01 T03240143  RH  033%=      5-min Rain = 0
KPG1 101917Z 01004KT 33/14 A3004 RMK A01 T03260143  RH  033%=      5-min Rain = 0
KPG1 101918Z 32004KT 33/14 A3004 RMK A01 T03250143  RH  033%=      5-min Rain = 0
KPG1 101919Z 32005KT 33/14 A3004 RMK A01 T03260144  RH  033%=      5-min Rain = 0
KPG1 101920Z 35007KT 33/14 A3004 RMK A01 T03250144  RH  033%=      5-min Rain = 0
KPG1 101921Z 01007KT 32/14 A3004 RMK A01 T03230139  RH  033%=      5-min Rain = 0
KPG1 101922Z 00007KT 32/14 A3004 RMK A01 T03220139  RH  033%=      5-min Rain = 0
KPG1 101923Z 00008KT 32/14 A3004 RMK A01 T03220142  RH  034%=      5-min Rain = 0
KPG1 101924Z 01008KT 33/14 A3004 RMK A01 T03250142  RH  033%=      5-min Rain = 0
KPG1 101925Z 01007KT 32/14 A3004 RMK A01 T03240141  RH  033%=      5-min Rain = 0
KPG1 101926Z 04008KT 32/14 A3004 RMK A01 T03210142  RH  034%=      5-min Rain = 0
KPG1 101927Z 05009KT 32/14 A3004 RMK A01 T03200143  RH  034%=      5-min Rain = 0
KPG1 101928Z 04008KT 32/14 A3004 RMK A01 T03190143  RH  034%=      5-min Rain = 0
KPG1 101929Z 06007KT 32/14 A3003 RMK A01 T03180144  RH  035%=      5-min Rain = 0
KPG1 101930Z 06007KT 32/15 A3003 RMK A01 T03170146  RH  035%=      5-min Rain = 0
KPG1 101931Z 06005KT 32/15 A3003 RMK A01 T03160147  RH  036%=      5-min Rain = 0
KPG1 101932Z 06006KT 32/15 A3003 RMK A01 T03170146  RH  035%=      5-min Rain = 0
KPG1 101933Z 06006KT 32/14 A3003 RMK A01 T03180144  RH  035%=      5-min Rain = 0
KPG1 101934Z 05006KT 32/14 A3003 RMK A01 T03160143  RH  035%=      5-min Rain = 0
KPG1 101935Z 04007KT 32/15 A3003 RMK A01 T03150145  RH  036%=      5-min Rain = 0
KPG1 101936Z 06004KT 32/14 A3003 RMK A01 T03160144  RH  035%=      5-min Rain = 0
KPG1 101937Z 07003KT 32/14 A3003 RMK A01 T03160144  RH  035%=      5-min Rain = 0
KPG1 101938Z 05004KT 32/14 A3003 RMK A01 T03160143  RH  035%=      5-min Rain = 0
KPG1 101939Z 05006KT 32/14 A3003 RMK A01 T03170143  RH  035%=      5-min Rain = 0
KPG1 101940Z 03006KT 32/14 A3003 RMK A01 T03170143  RH  035%=      5-min Rain = 0
KPG1 101941Z 05004KT 32/14 A3003 RMK A01 T03150143  RH  035%=      5-min Rain = 0
KPG1 101942Z 03005KT 32/15 A3003 RMK A01 T03160145  RH  035%=      5-min Rain = 0
KPG1 101943Z 02004KT 32/15 A3003 RMK A01 T03180145  RH  035%=      5-min Rain = 0
KPG1 101944Z 03002KT 32/14 A3003 RMK A01 T03170144  RH  035%=      5-min Rain = 0
KPG1 101945Z 03003KT 32/14 A3003 RMK A01 T03160144  RH  035%=      5-min Rain = 0
KPG1 101946Z 06006KT 32/15 A3003 RMK A01 T03170145  RH  035%=      5-min Rain = 0
KPG1 101947Z 07005KT 32/14 A3003 RMK A01 T03190144  RH  035%=      5-min Rain = 0
KPG1 101948Z 09004KT 32/14 A3003 RMK A01 T03160143  RH  035%=      5-min Rain = 0
KPG1 101949Z 07004KT 32/14 A3003 RMK A01 T03160144  RH  035%=      5-min Rain = 0
KPG1 101950Z 06005KT 32/14 A3003 RMK A01 T03170144  RH  035%=      5-min Rain = 0
KPG1 101951Z 02005KT 32/15 A3003 RMK A01 T03180145  RH  035%=      5-min Rain = 0
KPG1 101952Z 01007KT 32/15 A3003 RMK A01 T03190146  RH  035%=      5-min Rain = 0
KPG1 101953Z 35006KT 32/14 A3003 RMK A01 T03200143  RH  034%=      5-min Rain = 0
KPG1 101954Z 36008KT 32/14 A3003 RMK A01 T03200139  RH  033%=      5-min Rain = 0
KPG1 101955Z 34008KT 32/14 A3003 RMK A01 T03180139  RH  034%=      5-min Rain = 0
KPG1 101956Z 33010KT 32/14 A3003 RMK A01 T03160139  RH  034%=      5-min Rain = 0
KPG1 101957Z 34007KT 32/14 A3003 RMK A01 T03160139  RH  034%=      5-min Rain = 0
KPG1 101958Z 34005KT 32/14 A3002 RMK A01 T03160139  RH  034%=      5-min Rain = 0
KPG1 101959Z 34009KT 32/14 A3002 RMK A01 T03160138  RH  034%=      5-min Rain = 0
KPG1 102000Z 34010KT 32/14 A3002 RMK A01 T03170135  RH  033%=      5-min Rain = 0
KPG1 102001Z 34008KT 32/13 A3002 RMK A01 T03170134  RH  033%=      5-min Rain = 0
KPG1 102002Z 34009KT 32/14 A3002 RMK A01 T03180136  RH  033%=      5-min Rain = 0
KPG1 102003Z 35007KT 32/14 A3002 RMK A01 T03180136  RH  033%=      5-min Rain = 0
KPG1 102004Z 34006KT 32/14 A3002 RMK A01 T03190137  RH  033%=      5-min Rain = 0
KPG1 102005Z 34005KT 32/14 A3002 RMK A01 T03210137  RH  033%=      5-min Rain = 0
KPG1 102006Z 01006KT 32/14 A3002 RMK A01 T03210136  RH  033%=      5-min Rain = 0
KPG1 102007Z 02006KT 32/14 A3002 RMK A01 T03210136  RH  032%=      5-min Rain = 0
KPG1 102008Z 02006KT 32/14 A3002 RMK A01 T03210136  RH  033%=      5-min Rain = 0
KPG1 102009Z 02005KT 32/14 A3002 RMK A01 T03200136  RH  033%=      5-min Rain = 0
KPG1 102010Z 02004KT 32/14 A3002 RMK A01 T03190137  RH  033%=      5-min Rain = 0
KPG1 102011Z 03005KT 32/14 A3002 RMK A01 T03200137  RH  033%=      5-min Rain = 0
KPG1 102012Z 03004KT 32/14 A3002 RMK A01 T03210138  RH  033%=      5-min Rain = 0
KPG1 102013Z 06003KT 32/14 A3002 RMK A01 T03210136  RH  032%=      5-min Rain = 0
KPG1 102014Z 09003KT 32/13 A3002 RMK A01 T03200134  RH  032%=      5-min Rain = 0
KPG1 102015Z 07003KT 32/14 A3002 RMK A01 T03190136  RH  033%=      5-min Rain = 0
KPG1 102016Z 06003KT 32/14 A3002 RMK A01 T03200136  RH  033%=      5-min Rain = 0
KPG1 102017Z 07003KT 32/14 A3002 RMK A01 T03200135  RH  032%=      5-min Rain = 0
KPG1 102018Z 07004KT 32/14 A3002 RMK A01 T03190135  RH  033%=      5-min Rain = 0
KPG1 102019Z 10003KT 32/13 A3002 RMK A01 T03200134  RH  032%=      5-min Rain = 0
KPG1 102020Z 08005KT 32/13 A3002 RMK A01 T03200134  RH  032%=      5-min Rain = 0
KPG1 102021Z 06005KT 32/14 A3002 RMK A01 T03220135  RH  032%=      5-min Rain = 0
KPG1 102022Z 05005KT 32/13 A3002 RMK A01 T03230132  RH  031%=      5-min Rain = 0
KPG1 102023Z 05004KT 32/13 A3002 RMK A01 T03230130  RH  031%=      5-min Rain = 0
KPG1 102024Z 04003KT 32/13 A3002 RMK A01 T03230129  RH  031%=      5-min Rain = 0
KPG1 102025Z 03004KT 32/13 A3002 RMK A01 T03220129  RH  031%=      5-min Rain = 0
KPG1 102026Z 03003KT 32/13 A3002 RMK A01 T03230129  RH  031%=      5-min Rain = 0
KPG1 102027Z 05003KT 32/13 A3002 RMK A01 T03240129  RH  031%=      5-min Rain = 0
KPG1 102028Z 06002KT 32/13 A3002 RMK A01 T03240127  RH  030%=      5-min Rain = 0
KPG1 102029Z 10001KT 32/13 A3002 RMK A01 T03230126  RH  030%=      5-min Rain = 0
KPG1 102030Z 08002KT 32/13 A3002 RMK A01 T03220128  RH  031%=      5-min Rain = 0
KPG1 102031Z 04003KT 32/13 A3002 RMK A01 T03230130  RH  031%=      5-min Rain = 0
KPG1 102032Z 05004KT 33/13 A3002 RMK A01 T03260130  RH  030%=      5-min Rain = 0
KPG1 102033Z 07004KT 33/13 A3002 RMK A01 T03280131  RH  030%=      5-min Rain = 0
KPG1 102034Z 08006KT 33/13 A3002 RMK A01 T03290132  RH  030%=      5-min Rain = 0
KPG1 102035Z 06006KT 33/13 A3002 RMK A01 T03290133  RH  030%=      5-min Rain = 0
KPG1 102036Z 07006KT 33/13 A3002 RMK A01 T03290132  RH  030%=      5-min Rain = 0
KPG1 102037Z 07006KT 33/13 A3002 RMK A01 T03260131  RH  031%=      5-min Rain = 0
KPG1 102038Z 07005KT 33/13 A3002 RMK A01 T03280131  RH  030%=      5-min Rain = 0
KPG1 102039Z 08004KT 33/13 A3002 RMK A01 T03280131  RH  030%=      5-min Rain = 0
KPG1 102040Z 10004KT 33/13 A3002 RMK A01 T03280131  RH  030%=      5-min Rain = 0
KPG1 102041Z 09004KT 33/13 A3002 RMK A01 T03280130  RH  030%=      5-min Rain = 0
KPG1 102042Z 09002KT 33/13 A3002 RMK A01 T03260130  RH  030%=      5-min Rain = 0
KPG1 102043Z 04001KT 33/13 A3002 RMK A01 T03270130  RH  030%=      5-min Rain = 0
KPG1 102044Z 29001KT 33/13 A3001 RMK A01 T03300129  RH  030%=      5-min Rain = 0
KPG1 102045Z 13003KT 33/13 A3001 RMK A01 T03310130  RH  030%=      5-min Rain = 0
KPG1 102046Z 03003KT 33/13 A3001 RMK A01 T03340132  RH  029%=      5-min Rain = 0
KPG1 102047Z 01004KT 34/13 A3001 RMK A01 T03350131  RH  029%=      5-min Rain = 0
KPG1 102048Z 03003KT 33/13 A3001 RMK A01 T03320131  RH  030%=      5-min Rain = 0
KPG1 102049Z 08003KT 33/13 A3001 RMK A01 T03310129  RH  029%=      5-min Rain = 0
KPG1 102050Z 10004KT 33/13 A3001 RMK A01 T03300129  RH  030%=      5-min Rain = 0
KPG1 102051Z 11004KT 33/13 A3001 RMK A01 T03300129  RH  030%=      5-min Rain = 0
KPG1 102052Z 13006KT 33/13 A3001 RMK A01 T03310131  RH  030%=      5-min Rain = 0
KPG1 102053Z 14005KT 34/13 A3001 RMK A01 T03360132  RH  029%=      5-min Rain = 0
KPG1 102054Z 15005KT 34/13 A3001 RMK A01 T03390131  RH  028%=      5-min Rain = 0
KPG1 102055Z 17004KT 34/13 A3001 RMK A01 T03400131  RH  028%=      5-min Rain = 0
KPG1 102056Z 14006KT 34/13 A3001 RMK A01 T03390131  RH  029%=      5-min Rain = 0
KPG1 102057Z 14006KT 34/13 A3001 RMK A01 T03380129  RH  028%=      5-min Rain = 0
KPG1 102058Z 10005KT 34/13 A3001 RMK A01 T03370129  RH  029%=      5-min Rain = 0
KPG1 102059Z 09003KT 34/13 A3001 RMK A01 T03410131  RH  028%=      5-min Rain = 0
KPG1 102100Z 11003KT 34/13 A3001 RMK A01 T03440131  RH  028%=      5-min Rain = 0
KPG1 102101Z 17002KT 34/13 A30 RMK A01 T03440131  RH  028%=      5-min Rain = 0
KPG1 102102Z 13003KT 34/13 A30 RMK A01 T03420131  RH  028%=      5-min Rain = 0
KPG1 102103Z 05009KT 34/13 A30 RMK A01 T03410129  RH  028%=      5-min Rain = 0
KPG1 102104Z 05007KT 34/13 A3001 RMK A01 T03430128  RH  027%=      5-min Rain = 0
KPG1 102105Z 06006KT 34/13 A3001 RMK A01 T03440125  RH  027%=      5-min Rain = 0
KPG1 102106Z 06006KT 34/12 A3001 RMK A01 T03430124  RH  027%=      5-min Rain = 0
KPG1 102107Z 04009KT 34/12 A3001 RMK A01 T03390124  RH  027%=      5-min Rain = 0
KPG1 102108Z 04007KT 33/12 A3001 RMK A01 T03330123  RH  028%=      5-min Rain = 0
KPG1 102109Z 03007KT 33/12 A3001 RMK A01 T03330124  RH  028%=      5-min Rain = 0
KPG1 102110Z 04006KT 33/12 A3001 RMK A01 T03320124  RH  028%=      5-min Rain = 0
KPG1 102111Z 05004KT 33/12 A30 RMK A01 T03320124  RH  028%=      5-min Rain = 0
KPG1 102112Z 05004KT 33/12 A30 RMK A01 T03310123  RH  028%=      5-min Rain = 0
KPG1 102113Z 04001KT 33/12 A30 RMK A01 T03310124  RH  028%=      5-min Rain = 0
KPG1 102114Z 04004KT 33/12 A30 RMK A01 T03320120  RH  028%=      5-min Rain = 0
KPG1 102115Z 01003KT 33/12 A30 RMK A01 T03330118  RH  027%=      5-min Rain = 0
KPG1 102116Z 33003KT 33/12 A30 RMK A01 T03320119  RH  027%=      5-min Rain = 0
KPG1 102117Z 31004KT 33/12 A30 RMK A01 T03330119  RH  027%=      5-min Rain = 0
KPG1 102118Z 31006KT 33/12 A30 RMK A01 T03340117  RH  027%=      5-min Rain = 0
KPG1 102119Z 30004KT 33/11 A30 RMK A01 T03320113  RH  026%=      5-min Rain = 0
KPG1 102120Z 29003KT 33/11 A30 RMK A01 T03320111  RH  026%=      5-min Rain = 0
KPG1 102121Z 27002KT 33/11 A30 RMK A01 T03340110  RH  026%=      5-min Rain = 0
KPG1 102122Z 07003KT 34/11 A30 RMK A01 T03370114  RH  026%=      5-min Rain = 0
KPG1 102123Z 08003KT 34/12 A30 RMK A01 T03360115  RH  026%=      5-min Rain = 0
KPG1 102124Z 11001KT 33/12 A2999 RMK A01 T03340115  RH  026%=      5-min Rain = 0
KPG1 102125Z 06000KT 33/12 A2999 RMK A01 T03330116  RH  027%=      5-min Rain = 0
KPG1 102126Z 06001KT 33/12 A2999 RMK A01 T03340117  RH  027%=      5-min Rain = 0
KPG1 102127Z 14002KT 34/12 A2999 RMK A01 T03350117  RH  027%=      5-min Rain = 0
KPG1 102128Z 12005KT 34/12 A2999 RMK A01 T03370118  RH  026%=      5-min Rain = 0
KPG1 102129Z 06006KT 34/12 A2999 RMK A01 T03410116  RH  026%=      5-min Rain = 0
KPG1 102130Z 02006KT 34/12 A2999 RMK A01 T03420117  RH  025%=      5-min Rain = 0
KPG1 102131Z 01008KT 34/12 A2999 RMK A01 T03410118  RH  026%=      5-min Rain = 0
KPG1 102132Z 35007KT 34/12 A2999 RMK A01 T03390120  RH  026%=      5-min Rain = 0
KPG1 102133Z 34003KT 34/12 A2999 RMK A01 T03360119  RH  027%=      5-min Rain = 0
KPG1 102134Z 04009KT 34/12 A2999 RMK A01 T03370119  RH  027%=      5-min Rain = 0
KPG1 102135Z 04015KT 34/12 A2999 RMK A01 T03430119  RH  026%=      5-min Rain = 0
KPG1 102136Z 04014KT 34/12 A2999 RMK A01 T03410117  RH  026%=      5-min Rain = 0
KPG1 102137Z 05012KT 34/12 A2999 RMK A01 T03390115  RH  026%=      5-min Rain = 0
KPG1 102138Z 06011KT 34/12 A2999 RMK A01 T03380115  RH  026%=      5-min Rain = 0
KPG1 102139Z 06012KT 34/13 A2999 RMK A01 T03390131  RH  028%=      5-min Rain = 0
KPG1 102140Z 06011KT 34/14 A2999 RMK A01 T03350138  RH  030%=      5-min Rain = 0
KPG1 102141Z 07012KT 33/14 A2999 RMK A01 T03320141  RH  032%=      5-min Rain = 0
KPG1 102142Z 05014G19KT 33/14 A2999 RMK A01 T03290142  RH  032%=      5-min Rain = 0
KPG1 102143Z 05018KT 33/14 A2999 RMK A01 T03260142  RH  033%=      5-min Rain = 0
KPG1 102144Z 05015KT 33/14 A2999 RMK A01 T03250142  RH  033%=      5-min Rain = 0
KPG1 102145Z 06012KT 33/14 A30 RMK A01 T03250142  RH  033%=      5-min Rain = 0
KPG1 102146Z 06014KT 33/14 A30 RMK A01 T03280142  RH  033%=      5-min Rain = 0
KPG1 102147Z 06017KT 33/14 A2999 RMK A01 T03270141  RH  032%=      5-min Rain = 0
KPG1 102148Z 07017KT 33/14 A30 RMK A01 T03260140  RH  033%=      5-min Rain = 0
KPG1 102149Z 05013KT 32/14 A30 RMK A01 T03210141  RH  034%=      5-min Rain = 0
KPG1 102150Z 05013KT 32/14 A30 RMK A01 T03190140  RH  034%=      5-min Rain = 0
KPG1 102151Z 07010KT 32/14 A30 RMK A01 T03190138  RH  033%=      5-min Rain = 0
KPG1 102152Z 08008KT 32/14 A30 RMK A01 T03200138  RH  033%=      5-min Rain = 0
KPG1 102153Z 05007KT 32/14 A30 RMK A01 T03190139  RH  034%=      5-min Rain = 0
KPG1 102154Z 06010KT 32/14 A30 RMK A01 T03190142  RH  034%=      5-min Rain = 0
KPG1 102155Z 07016KT 32/14 A30 RMK A01 T03230143  RH  034%=      5-min Rain = 0
KPG1 102156Z 06015KT 32/14 A30 RMK A01 T03230142  RH  033%=      5-min Rain = 0
KPG1 102157Z 03016G24KT 32/14 A30 RMK A01 T03230142  RH  033%=      5-min Rain = 0
KPG1 102158Z 03020KT 32/14 A30 RMK A01 T03190141  RH  034%=      5-min Rain = 0
KPG1 102159Z 02022KT 32/14 A30 RMK A01 T03150142  RH  035%=      5-min Rain = 0
KPG1 102200Z 02021G26KT 31/14 A30 RMK A01 T03140142  RH  035%=      5-min Rain = 0
KPG1 102201Z 03018G24KT 31/14 A30 RMK A01 T03140142  RH  035%=      5-min Rain = 0
KPG1 102202Z 03017KT 31/15 A30 RMK A01 T03140145  RH  036%=      5-min Rain = 0
KPG1 102203Z 03017KT 31/15 A30 RMK A01 T03140146  RH  036%=      5-min Rain = 0
KPG1 102204Z 02022G27KT 31/14 A30 RMK A01 T03130144  RH  036%=      5-min Rain = 0
KPG1 102205Z 02022KT 31/14 A30 RMK A01 T03090142  RH  036%=      5-min Rain = 0
KPG1 102206Z 01021G26KT 31/15 A30 RMK A01 T03060145  RH  038%=      5-min Rain = 0
KPG1 102207Z 02020G26KT 30/15 A30 RMK A01 T03040145  RH  038%=      5-min Rain = 0
KPG1 102208Z 01016KT 30/15 A30 RMK A01 T03040147  RH  038%=      5-min Rain = 0
KPG1 102209Z 03018KT 30/15 A30 RMK A01 T03030148  RH  039%=      5-min Rain = 0
KPG1 102210Z 01016G22KT 30/15 A30 RMK A01 T03020149  RH  040%=      5-min Rain = 0
KPG1 102211Z 02020KT 30/15 A30 RMK A01 T03020150  RH  040%=      5-min Rain = 0
KPG1 102212Z 02021KT 30/15 A30 RMK A01 T03000149  RH  040%=      5-min Rain = 0
KPG1 102213Z 02022KT 30/15 A30 RMK A01 T02980150  RH  040%=      5-min Rain = 0
KPG1 102214Z 02018KT 30/15 A30 RMK A01 T02970150  RH  041%=      5-min Rain = 0
KPG1 102215Z 03014KT 30/15 A3001 RMK A01 T02970150  RH  041%=      5-min Rain = 0
KPG1 102216Z 04018G23KT 30/15 A3001 RMK A01 T03000148  RH  040%=      5-min Rain = 0
KPG1 102217Z 03019KT 30/15 A3001 RMK A01 T03010147  RH  039%=      5-min Rain = 0
KPG1 102218Z 03015KT 30/15 A3001 RMK A01 T03010145  RH  039%=      5-min Rain = 0
KPG1 102219Z 03017KT 30/15 A3001 RMK A01 T03010147  RH  039%=      5-min Rain = 0
KPG1 102220Z 02016KT 30/15 A3001 RMK A01 T03010148  RH  039%=      5-min Rain = 0
KPG1 102221Z 03017KT 30/15 A3001 RMK A01 T03020148  RH  039%=      5-min Rain = 0
KPG1 102222Z 03014G21KT 30/15 A3001 RMK A01 T03010149  RH  040%=      5-min Rain = 0
KPG1 102223Z 04016KT 30/15 A3001 RMK A01 T03040151  RH  040%=      5-min Rain = 0
KPG1 102224Z 04020G26KT 31/15 A3001 RMK A01 T03050152  RH  040%=      5-min Rain = 0
KPG1 102225Z 04022G27KT 30/15 A3002 RMK A01 T03010153  RH  041%=      5-min Rain = 0
KPG1 102226Z 03023KT 30/15 A3002 RMK A01 T02970153  RH  042%=      5-min Rain = 0
KPG1 102227Z 04015G22KT 29/15 A3002 RMK A01 T02940152  RH  042%=      5-min Rain = 0
KPG1 102228Z 04021KT 30/15 A3002 RMK A01 T02960154  RH  042%=      5-min Rain = 0
KPG1 102229Z 03022KT 30/15 A3002 RMK A01 T02950153  RH  042%=      5-min Rain = 0
KPG1 102230Z 02022KT 29/16 A3002 RMK A01 T02930155  RH  043%=      5-min Rain = 0
KPG1 102231Z 02024KT 29/16 A3002 RMK A01 T02890155  RH  044%=      5-min Rain = 0
KPG1 102232Z 03021KT 29/16 A3003 RMK A01 T02850156  RH  045%=      5-min Rain = 0
KPG1 102233Z 04026KT 28/16 A3003 RMK A01 T02840156  RH  046%=      5-min Rain = 0
KPG1 102234Z 03023KT 28/16 A3003 RMK A01 T02800156  RH  047%=      5-min Rain = 0
KPG1 102235Z 04023G30KT 28/16 A3003 RMK A01 T02770155  RH  047%=      5-min Rain = 0
KPG1 102236Z 04025G31KT 28/15 A3003 RMK A01 T02750154  RH  048%=      5-min Rain = 0
KPG1 102237Z 03025G30KT 27/15 A3003 RMK A01 T02740153  RH  047%=      5-min Rain = 0
KPG1 102238Z 03027G32KT 27/15 A3003 RMK A01 T02720152  RH  048%=      5-min Rain = 0
KPG1 102239Z 04024G29KT 27/16 A3003 RMK A01 T02700155  RH  049%=      5-min Rain = 0
KPG1 102240Z 03028G34KT 27/16 A3003 RMK A01 T02670162  RH  053%=      5-min Rain = 0
KPG1 102241Z 03026G31KT 26/17 A3003 RMK A01 T02630166  RH  055%=      5-min Rain = 0
KPG1 102242Z 03025KT 26/17 A3004 RMK A01 T02620169  RH  057%=      5-min Rain = 0
KPG1 102243Z 03022G29KT 26/17 A3004 RMK A01 T02610171  RH  057%=      5-min Rain = 0
KPG1 102244Z 03027G32KT 26/17 A3004 RMK A01 T02610173  RH  058%=      5-min Rain = 0
KPG1 102245Z 03022G27KT 26/17 A3004 RMK A01 T02600174  RH  059%=      5-min Rain = 0
KPG1 102246Z 03024KT 26/18 A3004 RMK A01 T02590175  RH  060%=      5-min Rain = 0
KPG1 102247Z 03025G30KT 26/18 A3004 RMK A01 T02580176  RH  060%=      5-min Rain = 0
KPG1 102248Z 03024G29KT 26/18 A3004 RMK A01 T02570177  RH  061%=      5-min Rain = 0
KPG1 102249Z 03022G29KT 26/18 A3004 RMK A01 T02550178  RH  062%=      5-min Rain = 0
KPG1 102250Z 04021KT 25/18 A3004 RMK A01 T02530180  RH  064%=      5-min Rain = 0
KPG1 102251Z 03026G35KT 25/18 A3004 RMK A01 T02530181  RH  064%=      5-min Rain = 0
KPG1 102252Z 03027G33KT 25/18 A3005 RMK A01 T02500181  RH  065%=      5-min Rain = 0
KPG1 102253Z 03028G36KT 25/18 A3005 RMK A01 T02490181  RH  066%=      5-min Rain = 0
KPG1 102254Z 03025G31KT 25/18 A3005 RMK A01 T02470182  RH  067%=      5-min Rain = 0
KPG1 102255Z 03026KT 25/18 A3005 RMK A01 T02470182  RH  067%=      5-min Rain = 0
KPG1 102256Z 03024G35KT 25/18 A3005 RMK A01 T02460182  RH  068%=      5-min Rain = 0
KPG1 102257Z 03027G32KT 24/18 A3005 RMK A01 T02430182  RH  068%=      5-min Rain = 0
KPG1 102258Z 03026KT 24/18 A3005 RMK A01 T02420182  RH  069%=      5-min Rain = 0
KPG1 102259Z 03026KT 24/18 A3005 RMK A01 T02410182  RH  069%=      5-min Rain = 0
KPG1 102300Z 04024KT 24/18 A3006 RMK A01 T02410182  RH  069%=      5-min Rain = 0
KPG1 102301Z 04020KT 24/18 A3006 RMK A01 T02410182  RH  069%=      5-min Rain = 0
KPG1 102302Z 04022KT 24/18 A3006 RMK A01 T02410182  RH  069%=      5-min Rain = 0
KPG1 102303Z 03022G27KT 24/18 A3006 RMK A01 T02410182  RH  070%=      5-min Rain = 0
KPG1 102304Z 04021KT 24/18 A3006 RMK A01 T02400182  RH  070%=      5-min Rain = 0
KPG1 102305Z 03021KT 24/18 A3006 RMK A01 T02390182  RH  070%=      5-min Rain = 0
KPG1 102306Z 03022KT 24/18 A3005 RMK A01 T02390182  RH  070%=      5-min Rain = 0
KPG1 102307Z 03022G27KT 24/18 A3005 RMK A01 T02390182  RH  070%=      5-min Rain = 0
KPG1 102308Z 03021G26KT 24/18 A3005 RMK A01 T02380181  RH  070%=      5-min Rain = 0
KPG1 102309Z 03017KT 24/18 A3005 RMK A01 T02390182  RH  071%=      5-min Rain = 0
KPG1 102310Z 04016KT 24/18 A3005 RMK A01 T02390183  RH  070%=      5-min Rain = 0
KPG1 102311Z 04016KT 24/18 A3005 RMK A01 T02400183  RH  070%=      5-min Rain = 0
KPG1 102312Z 05014KT 24/18 A3005 RMK A01 T02400183  RH  070%=      5-min Rain = 0
KPG1 102313Z 05019KT 24/18 A3005 RMK A01 T02410182  RH  070%=      5-min Rain = 0
KPG1 102314Z 04015KT 24/18 A3005 RMK A01 T02410182  RH  069%=      5-min Rain = 0
KPG1 102315Z 04017G23KT 24/18 A3005 RMK A01 T02410181  RH  069%=      5-min Rain = 0
KPG1 102316Z 05014G20KT 24/18 A3005 RMK A01 T02410181  RH  069%=      5-min Rain = 0
KPG1 102317Z 07021KT 24/18 A3005 RMK A01 T02410179  RH  068%=      5-min Rain = 0
KPG1 102318Z 06018KT 24/18 A3005 RMK A01 T02400178  RH  068%=      5-min Rain = 0
KPG1 102319Z 05015KT 24/18 A3005 RMK A01 T02400179  RH  069%=      5-min Rain = 0
KPG1 102320Z 06018G23KT 24/18 A3005 RMK A01 T02400179  RH  069%=      5-min Rain = 0
KPG1 102321Z 06020KT 24/18 A3005 RMK A01 T02400179  RH  069%=      5-min Rain = 0
KPG1 102322Z 06018KT 24/18 A3005 RMK A01 T02400179  RH  069%=      5-min Rain = 0
KPG1 102323Z 06021KT 24/18 A3005 RMK A01 T02400179  RH  069%=      5-min Rain = 0
KPG1 102324Z 06017KT 24/18 A3005 RMK A01 T02390179  RH  069%=      5-min Rain = 0
KPG1 102325Z 06020KT 24/18 A3005 RMK A01 T02390180  RH  069%=      5-min Rain = 0
KPG1 102326Z 06021KT 24/18 A3005 RMK A01 T02390180  RH  070%=      5-min Rain = 0
KPG1 102327Z 06023KT 24/18 A3005 RMK A01 T02380180  RH  070%=      5-min Rain = 0
KPG1 102328Z 06017G23KT 24/18 A3005 RMK A01 T02370180  RH  070%=      5-min Rain = 0
KPG1 102329Z 06022G27KT 24/18 A3005 RMK A01 T02370180  RH  070%=      5-min Rain = 0
KPG1 102330Z 06020KT 24/18 A3006 RMK A01 T02360179  RH  070%=      5-min Rain = 0
KPG1 102331Z 05023KT 23/18 A3005 RMK A01 T02320176  RH  070%=      5-min Rain = 0
KPG1 102332Z 05018KT 23/18 A3006 RMK A01 T02290175  RH  072%=      5-min Rain = 0
KPG1 102333Z 03021KT 23/18 A3006 RMK A01 T02270176  RH  072%=      5-min Rain = 0
KPG1 102334Z 04021G27KT 23/18 A3006 RMK A01 T02270176  RH  073%=      5-min Rain = 0
KPG1 102335Z 04020KT 23/18 A3006 RMK A01 T02260176  RH  073%=      5-min Rain = 0
KPG1 102336Z 04019KT 22/18 A3006 RMK A01 T02240176  RH  074%=      5-min Rain = 0
KPG1 102337Z 03019G24KT 22/18 A3006 RMK A01 T02240177  RH  075%=      5-min Rain = 0
KPG1 102338Z 04020G25KT 22/18 A3006 RMK A01 T02240177  RH  075%=      5-min Rain = 0
KPG1 102339Z 04020KT 22/18 A3006 RMK A01 T02240177  RH  075%=      5-min Rain = 0
KPG1 102340Z 04020KT 22/18 A3006 RMK A01 T02240177  RH  075%=      5-min Rain = 0
KPG1 102341Z 03022KT 22/18 A3006 RMK A01 T02230178  RH  075%=      5-min Rain = 0
KPG1 102342Z 04021KT 22/18 A3007 RMK A01 T02230178  RH  076%=      5-min Rain = 0
KPG1 102343Z 03021KT 22/18 A3007 RMK A01 T02230179  RH  076%=      5-min Rain = 0
KPG1 102344Z 03022KT 22/18 A3006 RMK A01 T02230179  RH  076%=      5-min Rain = 0
KPG1 102345Z 04021KT 22/18 A3007 RMK A01 T02230179  RH  076%=      5-min Rain = 0
KPG1 102346Z 03020KT 22/18 A3006 RMK A01 T02230180  RH  077%=      5-min Rain = 0
KPG1 102347Z 03020KT 22/18 A3006 RMK A01 T02230180  RH  077%=      5-min Rain = 0
KPG1 102348Z 04021KT 22/18 A3006 RMK A01 T02230180  RH  077%=      5-min Rain = 0
KPG1 102349Z 04021KT 22/18 A3007 RMK A01 T02230181  RH  077%=      5-min Rain = 0
KPG1 102350Z 03018KT 22/18 A3007 RMK A01 T02230181  RH  077%=      5-min Rain = 0
KPG1 102351Z 03018KT 22/18 A3007 RMK A01 T02230181  RH  077%=      5-min Rain = 0
KPG1 102352Z 04021KT 22/18 A3007 RMK A01 T02230181  RH  077%=      5-min Rain = 0
KPG1 102353Z 04020G26KT 22/18 A3007 RMK A01 T02230180  RH  077%=      5-min Rain = 0
KPG1 102354Z 04021KT 22/18 A3007 RMK A01 T02240180  RH  077%=      5-min Rain = 0
KPG1 102355Z 04018G23KT 22/18 A3007 RMK A01 T02230180  RH  076%=      5-min Rain = 0
KPG1 102356Z 03020KT 22/18 A3007 RMK A01 T02230179  RH  076%=      5-min Rain = 0
KPG1 102357Z 04020KT 22/18 A3007 RMK A01 T02230179  RH  076%=      5-min Rain = 0
KPG1 102358Z 04020KT 22/18 A3007 RMK A01 T02230180  RH  076%=      5-min Rain = 0
KPG1 102359Z 04021KT 22/18 A3008 RMK A01 T02230179  RH  076%=      5-min Rain = 0
KPG1 110000Z 04023KT 22/18 A3008 RMK A01 T02230179  RH  076%=      5-min Rain = 0
KPG1 110001Z 04022KT 22/18 A3008 RMK A01 T02230179  RH  076%=      5-min Rain = 0
KPG1 110002Z 04021KT 22/18 A3008 RMK A01 T02220180  RH  077%=      5-min Rain = 0
KPG1 110003Z 04020KT 22/18 A3008 RMK A01 T02230180  RH  077%=      5-min Rain = 0
KPG1 110004Z 04020KT 22/18 A3008 RMK A01 T02230180  RH  077%=      5-min Rain = 0
KPG1 110005Z 04020KT 22/18 A3008 RMK A01 T02230180  RH  077%=      5-min Rain = 0
KPG1 110006Z 03018KT 22/18 A3008 RMK A01 T02230181  RH  077%=      5-min Rain = 0
KPG1 110007Z 03022KT 22/18 A3008 RMK A01 T02230180  RH  077%=      5-min Rain = 0
KPG1 110008Z 03019KT 22/18 A3008 RMK A01 T02230180  RH  077%=      5-min Rain = 0
KPG1 110009Z 03018KT 22/18 A3008 RMK A01 T02220180  RH  077%=      5-min Rain = 0
KPG1 110010Z 04017KT 22/18 A3008 RMK A01 T02220180  RH  077%=      5-min Rain = 0
KPG1 110011Z 04020KT 22/18 A3008 RMK A01 T02220180  RH  077%=      5-min Rain = 0
KPG1 110012Z 04021KT 22/18 A3008 RMK A01 T02220179  RH  077%=      5-min Rain = 0
KPG1 110013Z 03020KT 22/18 A3008 RMK A01 T02220179  RH  077%=      5-min Rain = 0
KPG1 110014Z 03018KT 22/18 A3008 RMK A01 T02220179  RH  077%=      5-min Rain = 0
KPG1 110015Z 03016G22KT 22/18 A3008 RMK A01 T02220179  RH  077%=      5-min Rain = 0
KPG1 110016Z 04015KT 22/18 A3008 RMK A01 T02220180  RH  077%=      5-min Rain = 0
KPG1 110017Z 03016KT 22/18 A3008 RMK A01 T02220180  RH  077%=      5-min Rain = 0
KPG1 110018Z 03019KT 22/18 A3008 RMK A01 T02220180  RH  077%=      5-min Rain = 0
KPG1 110019Z 04018KT 22/18 A3008 RMK A01 T02210179  RH  077%=      5-min Rain = 0
KPG1 110020Z 04016KT 22/18 A3008 RMK A01 T02200181  RH  078%=      5-min Rain = 0
KPG1 110021Z 04018KT 22/18 A3008 RMK A01 T02200180  RH  078%=      5-min Rain = 0
KPG1 110022Z 03014KT 22/18 A3008 RMK A01 T02200182  RH  079%=      5-min Rain = 0
KPG1 110023Z 04020KT 22/18 A3008 RMK A01 T02200182  RH  079%=      5-min Rain = 0
KPG1 110024Z 04018KT 22/18 A3008 RMK A01 T02190181  RH  079%=      5-min Rain = 0
KPG1 110025Z 04017KT 22/18 A3008 RMK A01 T02180182  RH  080%=      5-min Rain = 0
KPG1 110026Z 03015KT 22/18 A3008 RMK A01 T02170184  RH  081%=      5-min Rain = 0
KPG1 110027Z 03014KT 22/19 A3008 RMK A01 T02170185  RH  082%=      5-min Rain = 0
KPG1 110028Z 03017KT 22/19 A3008 RMK A01 T02170185  RH  082%=      5-min Rain = 0
KPG1 110029Z 03014KT 22/19 A3008 RMK A01 T02160185  RH  083%=      5-min Rain = 0
KPG1 110030Z 03015KT 22/19 A3008 RMK A01 T02150186  RH  083%=      5-min Rain = 0
KPG1 110031Z 03018KT 22/19 A3008 RMK A01 T02150185  RH  083%=      5-min Rain = 0
KPG1 110032Z 03016KT 21/19 A3008 RMK A01 T02140185  RH  083%=      5-min Rain = 0
KPG1 110033Z 03015KT 21/19 A3008 RMK A01 T02140186  RH  084%=      5-min Rain = 0
KPG1 110034Z 02015KT 21/19 A3008 RMK A01 T02130188  RH  085%=      5-min Rain = 0
KPG1 110035Z 03013KT 21/19 A3009 RMK A01 T02130189  RH  086%=      5-min Rain = 0
KPG1 110036Z 03013KT 21/19 A3009 RMK A01 T02130190  RH  087%=      5-min Rain = 0
KPG1 110037Z 03015KT 21/19 A3009 RMK A01 T02130190  RH  087%=      5-min Rain = 0
KPG1 110038Z 03013KT 21/19 A3009 RMK A01 T02120191  RH  087%=      5-min Rain = 0
KPG1 110039Z 03014KT 21/19 A3009 RMK A01 T02120192  RH  088%=      5-min Rain = 0
KPG1 110040Z 03016KT 21/19 A3009 RMK A01 T02120190  RH  087%=      5-min Rain = 0
KPG1 110041Z 03015KT 21/19 A3009 RMK A01 T02120189  RH  087%=      5-min Rain = 0
KPG1 110042Z 02015KT 21/19 A3009 RMK A01 T02120191  RH  088%=      5-min Rain = 0
KPG1 110043Z 02016KT 21/19 A3009 RMK A01 T02120191  RH  088%=      5-min Rain = 0
KPG1 110044Z 02017KT 21/19 A3009 RMK A01 T02120191  RH  088%=      5-min Rain = 0
KPG1 110045Z 02017KT 21/19 A3009 RMK A01 T02120191  RH  088%=      5-min Rain = 0
KPG1 110046Z 02018KT 21/19 A3009 RMK A01 T02110190  RH  088%=      5-min Rain = 0
KPG1 110047Z 02018KT 21/19 A3009 RMK A01 T02110190  RH  088%=      5-min Rain = 0
KPG1 110048Z 02017KT 21/19 A3009 RMK A01 T02110190  RH  088%=      5-min Rain = 0
KPG1 110049Z 03017KT 21/19 A3009 RMK A01 T02110191  RH  088%=      5-min Rain = 0
KPG1 110050Z 03015KT 21/19 A3009 RMK A01 T02110191  RH  089%=      5-min Rain = 0
KPG1 110051Z 03015KT 21/19 A3009 RMK A01 T02110192  RH  089%=      5-min Rain = 0
KPG1 110052Z 03013KT 21/19 A3009 RMK A01 T02100192  RH  089%=      5-min Rain = 0
KPG1 110053Z 04013KT 21/19 A3009 RMK A01 T02100193  RH  090%=      5-min Rain = 0
KPG1 110054Z 03014KT 21/19 A3009 RMK A01 T02100193  RH  090%=      5-min Rain = 0
KPG1 110055Z 04015KT 21/19 A3009 RMK A01 T02100193  RH  090%=      5-min Rain = 0
KPG1 110056Z 03014KT 21/19 A3009 RMK A01 T02100192  RH  090%=      5-min Rain = 0
KPG1 110057Z 03015KT 21/19 A3009 RMK A01 T02100193  RH  090%=      5-min Rain = 0
KPG1 110058Z 04015KT 21/19 A3009 RMK A01 T02100193  RH  090%=      5-min Rain = 0.01
KPG1 110059Z 04013KT 21/19 A3009 RMK A01 T02100194  RH  090%=      5-min Rain = 0
KPG1 110100Z 04013KT 21/20 A3009 RMK A01 T02100195  RH  091%=      5-min Rain = 0
KPG1 110101Z 04015KT 21/19 A3009 RMK A01 T02090194  RH  091%=      5-min Rain = 0
KPG1 110102Z 03013KT 21/19 A3009 RMK A01 T02090194  RH  091%=      5-min Rain = 0
KPG1 110103Z 04017KT 21/19 A3009 RMK A01 T02090194  RH  091%=      5-min Rain = 0
KPG1 110104Z 04016KT 21/19 A3009 RMK A01 T02090193  RH  091%=      5-min Rain = 0.01
KPG1 110105Z 04015KT 21/19 A3009 RMK A01 T02090193  RH  091%=      5-min Rain = 0
KPG1 110111Z 03012KT 21/20 A3009 RMK A01 T02090196  RH  092%=      5-min Rain = 0
KPG1 110112Z 03012KT 21/20 A3009 RMK A01 T02090196  RH  092%=      5-min Rain = 0
KPG1 110113Z 03012KT 21/20 A3009 RMK A01 T02090197  RH  093%=      5-min Rain = 0
KPG1 110114Z 03013KT 21/20 A3009 RMK A01 T02090197  RH  093%=      5-min Rain = 0
KPG1 110115Z 03012KT 21/20 A3009 RMK A01 T02090198  RH  093%=      5-min Rain = 0.01
KPG1 110116Z 03014KT 21/20 A3009 RMK A01 T02090198  RH  094%=      5-min Rain = 0
KPG1 110117Z 02014KT 21/20 A3009 RMK A01 T02090198  RH  093%=      5-min Rain = 0
KPG1 110118Z 03015KT 21/20 A3009 RMK A01 T02090198  RH  093%=      5-min Rain = 0
KPG1 110119Z 03014KT 21/20 A3009 RMK A01 T02080197  RH  093%=      5-min Rain = 0
KPG1 110120Z 02015KT 21/20 A3009 RMK A01 T02080197  RH  093%=      5-min Rain = 0
KPG1 110121Z 03016KT 21/20 A3009 RMK A01 T02080197  RH  093%=      5-min Rain = 0
KPG1 110122Z 02013KT 21/20 A3009 RMK A01 T02080196  RH  093%=      5-min Rain = 0
KPG1 110123Z 02015KT 21/20 A3009 RMK A01 T02080197  RH  093%=      5-min Rain = 0
KPG1 110124Z 02014KT 21/20 A3009 RMK A01 T02080197  RH  093%=      5-min Rain = 0
KPG1 110125Z 02015KT 21/20 A3009 RMK A01 T02080196  RH  093%=      5-min Rain = 0
KPG1 110126Z 02016KT 21/20 A3009 RMK A01 T02080196  RH  093%=      5-min Rain = 0
KPG1 110127Z 02018KT 21/20 A3009 RMK A01 T02080195  RH  092%=      5-min Rain = 0
KPG1 110128Z 02015KT 21/20 A3009 RMK A01 T02080195  RH  092%=      5-min Rain = 0
KPG1 110129Z 03015KT 21/20 A3009 RMK A01 T02090196  RH  092%=      5-min Rain = 0
KPG1 110130Z 02012KT 21/20 A3009 RMK A01 T02080196  RH  093%=      5-min Rain = 0
KPG1 110131Z 02014KT 21/20 A3009 RMK A01 T02080197  RH  093%=      5-min Rain = 0
KPG1 110132Z 02015KT 21/20 A3009 RMK A01 T02080196  RH  093%=      5-min Rain = 0
KPG1 110133Z 02014KT 21/20 A3009 RMK A01 T02080196  RH  092%=      5-min Rain = 0
KPG1 110134Z 03013KT 21/20 A3009 RMK A01 T02080196  RH  092%=      5-min Rain = 0
KPG1 110135Z 02011KT 21/20 A3009 RMK A01 T02080196  RH  092%=      5-min Rain = 0
KPG1 110136Z 02013KT 21/20 A3009 RMK A01 T02090196  RH  092%=      5-min Rain = 0
KPG1 110137Z 02013KT 21/20 A3009 RMK A01 T02090195  RH  092%=      5-min Rain = 0
KPG1 110138Z 02013KT 21/20 A3009 RMK A01 T02080195  RH  092%=      5-min Rain = 0
KPG1 110139Z 03011KT 21/20 A3009 RMK A01 T02080195  RH  092%=      5-min Rain = 0
KPG1 110140Z 03011KT 21/20 A3009 RMK A01 T02080195  RH  092%=      5-min Rain = 0
KPG1 110141Z 03012KT 21/20 A3009 RMK A01 T02080195  RH  092%=      5-min Rain = 0
KPG1 110142Z 02010KT 21/20 A3009 RMK A01 T02080195  RH  092%=      5-min Rain = 0
KPG1 110143Z 02011KT 21/20 A3009 RMK A01 T02080196  RH  093%=      5-min Rain = 0
KPG1 110144Z 02010KT 21/20 A3009 RMK A01 T02080196  RH  093%=      5-min Rain = 0
KPG1 110145Z 02013KT 21/20 A3009 RMK A01 T02080196  RH  092%=      5-min Rain = 0
KPG1 110146Z 02010KT 21/20 A3009 RMK A01 T02080195  RH  092%=      5-min Rain = 0
KPG1 110147Z 02010G15KT 21/20 A3009 RMK A01 T02090196  RH  092%=      5-min Rain = 0
KPG1 110148Z 02013KT 21/19 A3009 RMK A01 T02090194  RH  091%=      5-min Rain = 0
KPG1 110149Z 01012KT 21/19 A3009 RMK A01 T02090192  RH  090%=      5-min Rain = 0
KPG1 110150Z 01011KT 21/19 A3009 RMK A01 T02090191  RH  089%=      5-min Rain = 0
KPG1 110151Z 02009KT 21/19 A3009 RMK A01 T02090191  RH  089%=      5-min Rain = 0
KPG1 110152Z 01009KT 21/19 A3009 RMK A01 T02090191  RH  089%=      5-min Rain = 0
KPG1 110153Z 01009KT 21/19 A3009 RMK A01 T02090191  RH  089%=      5-min Rain = 0
KPG1 110154Z 02009KT 21/19 A3009 RMK A01 T02090191  RH  089%=      5-min Rain = 0
KPG1 110155Z 02010KT 21/19 A3009 RMK A01 T02090191  RH  090%=      5-min Rain = 0
KPG1 110156Z 02009KT 21/19 A301 RMK A01 T02090191  RH  089%=      5-min Rain = 0
KPG1 110157Z 02010KT 21/19 A301 RMK A01 T02090191  RH  089%=      5-min Rain = 0
KPG1 110158Z 02008KT 21/19 A301 RMK A01 T02090190  RH  089%=      5-min Rain = 0
KPG1 110159Z 02010KT 21/19 A301 RMK A01 T02090190  RH  089%=      5-min Rain = 0
KPG1 110200Z 02011KT 21/19 A301 RMK A01 T02090189  RH  088%=      5-min Rain = 0
KPG1 110201Z 02011KT 21/19 A3009 RMK A01 T02090190  RH  089%=      5-min Rain = 0
KPG1 110202Z 02010KT 21/19 A3009 RMK A01 T02100190  RH  088%=      5-min Rain = 0
KPG1 110203Z 01009KT 21/19 A301 RMK A01 T02100188  RH  088%=      5-min Rain = 0
KPG1 110204Z 02009KT 21/19 A301 RMK A01 T02100188  RH  087%=      5-min Rain = 0
KPG1 110205Z 02008KT 21/19 A301 RMK A01 T02100188  RH  088%=      5-min Rain = 0
KPG1 110206Z 02010KT 21/19 A301 RMK A01 T02100187  RH  087%=      5-min Rain = 0
KPG1 110207Z 02010KT 21/19 A3009 RMK A01 T02100186  RH  086%=      5-min Rain = 0
KPG1 110208Z 02010KT 21/19 A3009 RMK A01 T02100186  RH  086%=      5-min Rain = 0
KPG1 110209Z 02009KT 21/19 A3009 RMK A01 T02100187  RH  086%=      5-min Rain = 0
KPG1 110210Z 02009KT 21/19 A3009 RMK A01 T02100188  RH  087%=      5-min Rain = 0
KPG1 110211Z 02010KT 21/19 A3009 RMK A01 T02100189  RH  087%=      5-min Rain = 0
KPG1 110212Z 01011KT 21/19 A3009 RMK A01 T02100187  RH  087%=      5-min Rain = 0
KPG1 110213Z 01011KT 21/19 A3009 RMK A01 T02100187  RH  087%=      5-min Rain = 0
KPG1 110214Z 01010KT 21/19 A3009 RMK A01 T02100187  RH  087%=      5-min Rain = 0
KPG1 110215Z 01011KT 21/19 A3009 RMK A01 T02100186  RH  086%=      5-min Rain = 0
KPG1 110216Z 01012KT 21/19 A3009 RMK A01 T02100186  RH  086%=      5-min Rain = 0
KPG1 110217Z 01012KT 21/18 A3009 RMK A01 T02100184  RH  085%=      5-min Rain = 0
KPG1 110218Z 01011KT 21/18 A3009 RMK A01 T02100184  RH  085%=      5-min Rain = 0
KPG1 110219Z 01011KT 21/19 A3009 RMK A01 T02100185  RH  086%=      5-min Rain = 0
KPG1 110220Z 01012KT 21/18 A3009 RMK A01 T02100184  RH  085%=      5-min Rain = 0
KPG1 110221Z 01012KT 21/18 A3009 RMK A01 T02100183  RH  085%=      5-min Rain = 0
KPG1 110222Z 01011KT 21/18 A3009 RMK A01 T02100183  RH  084%=      5-min Rain = 0
KPG1 110223Z 01012KT 21/18 A3009 RMK A01 T02100183  RH  085%=      5-min Rain = 0
KPG1 110224Z 02012KT 21/18 A3009 RMK A01 T02100182  RH  084%=      5-min Rain = 0
KPG1 110225Z 01012KT 21/18 A3009 RMK A01 T02100182  RH  084%=      5-min Rain = 0
KPG1 110226Z 01011KT 21/18 A3009 RMK A01 T02100182  RH  084%=      5-min Rain = 0
KPG1 110227Z 00012KT 21/18 A3009 RMK A01 T02100182  RH  084%=      5-min Rain = 0
KPG1 110228Z 01012KT 21/18 A3009 RMK A01 T02100181  RH  084%=      5-min Rain = 0
KPG1 110229Z 01009KT 21/18 A3009 RMK A01 T02110182  RH  084%=      5-min Rain = 0
KPG1 110230Z 02008KT 21/18 A3009 RMK A01 T02100182  RH  084%=      5-min Rain = 0
KPG1 110231Z 02010KT 21/18 A3009 RMK A01 T02100182  RH  084%=      5-min Rain = 0
KPG1 110232Z 02011KT 21/18 A3009 RMK A01 T02100182  RH  084%=      5-min Rain = 0
KPG1 110233Z 02011KT 21/18 A3009 RMK A01 T02100182  RH  084%=      5-min Rain = 0
KPG1 110234Z 01009KT 21/18 A3009 RMK A01 T02100181  RH  083%=      5-min Rain = 0
KPG1 110235Z 01010KT 21/18 A3009 RMK A01 T02100181  RH  083%=      5-min Rain = 0
KPG1 110236Z 01010KT 21/18 A3009 RMK A01 T02100181  RH  083%=      5-min Rain = 0
KPG1 110237Z 01009KT 21/18 A3009 RMK A01 T02100181  RH  083%=      5-min Rain = 0
KPG1 110238Z 01009KT 21/18 A3009 RMK A01 T02100181  RH  083%=      5-min Rain = 0
KPG1 110239Z 02009KT 21/18 A3009 RMK A01 T02100180  RH  083%=      5-min Rain = 0
KPG1 110240Z 01010KT 21/18 A3009 RMK A01 T02110181  RH  083%=      5-min Rain = 0
KPG1 110241Z 01009KT 21/18 A3009 RMK A01 T02110181  RH  083%=      5-min Rain = 0
KPG1 110242Z 02009KT 21/18 A301 RMK A01 T02110181  RH  083%=      5-min Rain = 0
KPG1 110243Z 01009KT 21/18 A301 RMK A01 T02110182  RH  083%=      5-min Rain = 0
KPG1 110244Z 01009KT 21/18 A301 RMK A01 T02110182  RH  084%=      5-min Rain = 0
KPG1 110245Z 02007KT 21/18 A301 RMK A01 T02110182  RH  084%=      5-min Rain = 0
KPG1 110246Z 01010KT 21/18 A301 RMK A01 T02110182  RH  084%=      5-min Rain = 0
KPG1 110247Z 01009KT 21/18 A301 RMK A01 T02110181  RH  083%=      5-min Rain = 0
KPG1 110248Z 01009KT 21/18 A301 RMK A01 T02110181  RH  083%=      5-min Rain = 0
KPG1 110249Z 01008KT 21/18 A301 RMK A01 T02110181  RH  083%=      5-min Rain = 0
KPG1 110250Z 01008KT 21/18 A301 RMK A01 T02110182  RH  084%=      5-min Rain = 0
KPG1 110251Z 01006KT 21/18 A301 RMK A01 T02100182  RH  084%=      5-min Rain = 0
KPG1 110252Z 01008KT 21/18 A301 RMK A01 T02110181  RH  083%=      5-min Rain = 0
KPG1 110253Z 01007KT 21/18 A301 RMK A01 T02100180  RH  083%=      5-min Rain = 0
KPG1 110254Z 02006KT 21/18 A301 RMK A01 T02110181  RH  083%=      5-min Rain = 0
KPG1 110255Z 02006KT 21/18 A301 RMK A01 T02110181  RH  083%=      5-min Rain = 0
KPG1 110256Z 02006KT 21/18 A301 RMK A01 T02110182  RH  084%=      5-min Rain = 0
KPG1 110257Z 03006KT 21/18 A301 RMK A01 T02100183  RH  085%=      5-min Rain = 0
KPG1 110258Z 01007KT 21/18 A301 RMK A01 T02110183  RH  084%=      5-min Rain = 0
KPG1 110259Z 01006KT 21/18 A301 RMK A01 T02110183  RH  084%=      5-min Rain = 0
KPG1 110300Z 01007KT 21/18 A301 RMK A01 T02110182  RH  084%=      5-min Rain = 0
KPG1 110301Z 01008KT 21/18 A301 RMK A01 T02110180  RH  083%=      5-min Rain = 0
KPG1 110302Z 02006KT 21/18 A301 RMK A01 T02110181  RH  083%=      5-min Rain = 0
KPG1 110303Z 01005KT 21/18 A301 RMK A01 T02110182  RH  084%=      5-min Rain = 0
KPG1 110304Z 02005KT 21/18 A301 RMK A01 T02110182  RH  083%=      5-min Rain = 0
KPG1 110305Z 02005KT 21/18 A301 RMK A01 T02110182  RH  084%=      5-min Rain = 0
KPG1 110306Z 02005KT 21/18 A301 RMK A01 T02110182  RH  083%=      5-min Rain = 0
KPG1 110307Z 02005KT 21/18 A301 RMK A01 T02110182  RH  083%=      5-min Rain = 0
KPG1 110308Z 03007KT 21/18 A301 RMK A01 T02110183  RH  084%=      5-min Rain = 0
KPG1 110309Z 02008KT 21/18 A301 RMK A01 T02110182  RH  083%=      5-min Rain = 0
KPG1 110310Z 03006KT 21/18 A301 RMK A01 T02110181  RH  083%=      5-min Rain = 0
KPG1 110311Z 03008KT 21/19 A301 RMK A01 T02110185  RH  085%=      5-min Rain = 0
KPG1 110312Z 03008KT 21/18 A301 RMK A01 T02110184  RH  084%=      5-min Rain = 0
KPG1 110313Z 03007KT 21/18 A301 RMK A01 T02110183  RH  084%=      5-min Rain = 0
KPG1 110314Z 03008KT 21/18 A301 RMK A01 T02110181  RH  083%=      5-min Rain = 0
KPG1 110315Z 03007KT 21/18 A301 RMK A01 T02110182  RH  084%=      5-min Rain = 0
KPG1 110316Z 03007KT 21/18 A301 RMK A01 T02110183  RH  084%=      5-min Rain = 0
KPG1 110317Z 03007KT 21/18 A301 RMK A01 T02110182  RH  084%=      5-min Rain = 0
KPG1 110318Z 03007KT 21/18 A301 RMK A01 T02110182  RH  083%=      5-min Rain = 0
KPG1 110319Z 03007KT 21/18 A301 RMK A01 T02110183  RH  084%=      5-min Rain = 0
KPG1 110320Z 03006KT 21/18 A301 RMK A01 T02110184  RH  084%=      5-min Rain = 0
KPG1 110321Z 02006KT 21/18 A301 RMK A01 T02110184  RH  084%=      5-min Rain = 0
KPG1 110322Z 02006KT 21/18 A301 RMK A01 T02110184  RH  084%=      5-min Rain = 0
KPG1 110323Z 01006KT 21/18 A301 RMK A01 T02110181  RH  083%=      5-min Rain = 0
KPG1 110324Z 03005KT 21/18 A301 RMK A01 T02110180  RH  082%=      5-min Rain = 0
KPG1 110325Z 03004KT 21/18 A301 RMK A01 T02110183  RH  084%=      5-min Rain = 0
KPG1 110326Z 03006KT 21/18 A301 RMK A01 T02110183  RH  084%=      5-min Rain = 0
KPG1 110327Z 02005KT 21/18 A301 RMK A01 T02120181  RH  083%=      5-min Rain = 0
KPG1 110328Z 00006KT 21/18 A301 RMK A01 T02120180  RH  082%=      5-min Rain = 0
KPG1 110329Z 01006KT 21/18 A301 RMK A01 T02120177  RH  081%=      5-min Rain = 0
KPG1 110330Z 36006KT 21/18 A301 RMK A01 T02120177  RH  080%=      5-min Rain = 0
KPG1 110331Z 36006KT 21/18 A301 RMK A01 T02120176  RH  080%=      5-min Rain = 0
KPG1 110332Z 01006KT 21/18 A301 RMK A01 T02130176  RH  080%=      5-min Rain = 0
KPG1 110333Z 00007KT 21/18 A301 RMK A01 T02130177  RH  080%=      5-min Rain = 0
KPG1 110334Z 00007KT 21/18 A301 RMK A01 T02130177  RH  080%=      5-min Rain = 0
KPG1 110335Z 00007KT 21/18 A301 RMK A01 T02130176  RH  079%=      5-min Rain = 0
KPG1 110336Z 02007KT 21/18 A301 RMK A01 T02130176  RH  079%=      5-min Rain = 0
KPG1 110337Z 01006KT 21/18 A301 RMK A01 T02130176  RH  079%=      5-min Rain = 0
KPG1 110338Z 01006KT 21/18 A301 RMK A01 T02130175  RH  079%=      5-min Rain = 0
KPG1 110339Z 02006KT 21/18 A301 RMK A01 T02130177  RH  080%=      5-min Rain = 0
KPG1 110340Z 01006KT 21/18 A301 RMK A01 T02130176  RH  079%=      5-min Rain = 0
KPG1 110341Z 02008KT 21/18 A301 RMK A01 T02140175  RH  079%=      5-min Rain = 0
KPG1 110342Z 01006KT 21/17 A301 RMK A01 T02140174  RH  078%=      5-min Rain = 0
KPG1 110343Z 01008KT 21/17 A301 RMK A01 T02140174  RH  078%=      5-min Rain = 0
KPG1 110344Z 01009KT 21/17 A301 RMK A01 T02140173  RH  077%=      5-min Rain = 0
KPG1 110345Z 00008KT 22/17 A301 RMK A01 T02150173  RH  077%=      5-min Rain = 0
KPG1 110346Z 01008KT 22/17 A301 RMK A01 T02150174  RH  078%=      5-min Rain = 0
KPG1 110347Z 00008KT 22/17 A301 RMK A01 T02150174  RH  077%=      5-min Rain = 0
KPG1 110348Z 01008KT 22/17 A301 RMK A01 T02150174  RH  078%=      5-min Rain = 0
KPG1 110349Z 01009KT 22/17 A301 RMK A01 T02150174  RH  077%=      5-min Rain = 0
KPG1 110350Z 01008KT 22/17 A301 RMK A01 T02150174  RH  077%=      5-min Rain = 0
KPG1 110351Z 01008KT 22/17 A301 RMK A01 T02150174  RH  078%=      5-min Rain = 0
KPG1 110352Z 01008KT 22/18 A301 RMK A01 T02150175  RH  078%=      5-min Rain = 0
KPG1 110353Z 01009KT 22/17 A301 RMK A01 T02150173  RH  077%=      5-min Rain = 0
KPG1 110354Z 01008KT 22/17 A301 RMK A01 T02150173  RH  077%=      5-min Rain = 0
KPG1 110355Z 01009KT 22/17 A301 RMK A01 T02160174  RH  077%=      5-min Rain = 0
KPG1 110356Z 01008KT 22/17 A301 RMK A01 T02160174  RH  077%=      5-min Rain = 0
KPG1 110357Z 02007KT 22/18 A301 RMK A01 T02160175  RH  077%=      5-min Rain = 0
KPG1 110358Z 01008KT 22/17 A301 RMK A01 T02160174  RH  077%=      5-min Rain = 0
KPG1 110359Z 02009KT 22/17 A301 RMK A01 T02160174  RH  077%=      5-min Rain = 0
KPG1 110400Z 01008KT 22/17 A301 RMK A01 T02160173  RH  076%=      5-min Rain = 0
KPG1 110401Z 02007KT 22/17 A301 RMK A01 T02160174  RH  077%=      5-min Rain = 0
KPG1 110402Z 01008KT 22/17 A301 RMK A01 T02160174  RH  077%=      5-min Rain = 0
KPG1 110403Z 02008KT 22/17 A301 RMK A01 T02160173  RH  077%=      5-min Rain = 0
KPG1 110404Z 03007KT 22/17 A301 RMK A01 T02160172  RH  076%=      5-min Rain = 0
KPG1 110405Z 01008KT 22/17 A301 RMK A01 T02160173  RH  076%=      5-min Rain = 0
KPG1 110406Z 02007KT 22/17 A301 RMK A01 T02170174  RH  076%=      5-min Rain = 0
KPG1 110407Z 01008KT 22/17 A301 RMK A01 T02170174  RH  077%=      5-min Rain = 0
KPG1 110408Z 02007KT 22/17 A301 RMK A01 T02160172  RH  076%=      5-min Rain = 0
KPG1 110409Z 02007KT 22/17 A301 RMK A01 T02170172  RH  076%=      5-min Rain = 0
KPG1 110410Z 02007KT 22/17 A301 RMK A01 T02160172  RH  076%=      5-min Rain = 0
KPG1 110411Z 02007KT 22/17 A301 RMK A01 T02160171  RH  075%=      5-min Rain = 0
KPG1 110412Z 03007KT 22/17 A301 RMK A01 T02170171  RH  075%=      5-min Rain = 0
KPG1 110413Z 02006KT 22/17 A301 RMK A01 T02170171  RH  075%=      5-min Rain = 0
KPG1 110414Z 02007KT 22/17 A301 RMK A01 T02170171  RH  075%=      5-min Rain = 0
KPG1 110415Z 02007KT 22/17 A301 RMK A01 T02170171  RH  075%=      5-min Rain = 0
KPG1 110416Z 03007KT 22/17 A301 RMK A01 T02170170  RH  075%=      5-min Rain = 0
KPG1 110417Z 03006KT 22/17 A301 RMK A01 T02170172  RH  075%=      5-min Rain = 0
KPG1 110418Z 03006KT 22/17 A301 RMK A01 T02170173  RH  076%=      5-min Rain = 0
KPG1 110419Z 03006KT 22/17 A301 RMK A01 T02170173  RH  076%=      5-min Rain = 0
KPG1 110420Z 02007KT 22/17 A301 RMK A01 T02170172  RH  076%=      5-min Rain = 0
KPG1 110421Z 04007KT 22/17 A301 RMK A01 T02170172  RH  075%=      5-min Rain = 0
KPG1 110422Z 03008KT 22/17 A301 RMK A01 T02170172  RH  075%=      5-min Rain = 0
KPG1 110423Z 03007KT 22/17 A301 RMK A01 T02170173  RH  076%=      5-min Rain = 0
KPG1 110424Z 04007KT 22/17 A3009 RMK A01 T02170173  RH  076%=      5-min Rain = 0
KPG1 110425Z 02007KT 22/17 A301 RMK A01 T02170172  RH  076%=      5-min Rain = 0
KPG1 110426Z 03006KT 22/17 A301 RMK A01 T02170173  RH  076%=      5-min Rain = 0
KPG1 110427Z 03006KT 22/17 A301 RMK A01 T02170174  RH  076%=      5-min Rain = 0
KPG1 110428Z 04007KT 22/18 A3009 RMK A01 T02170175  RH  077%=      5-min Rain = 0
KPG1 110429Z 02006KT 22/17 A301 RMK A01 T02170174  RH  077%=      5-min Rain = 0
KPG1 110430Z 01006KT 22/17 A301 RMK A01 T02170173  RH  076%=      5-min Rain = 0
KPG1 110431Z 36005KT 22/17 A301 RMK A01 T02170173  RH  076%=      5-min Rain = 0
KPG1 110432Z 00004KT 22/17 A301 RMK A01 T02170173  RH  076%=      5-min Rain = 0
KPG1 110433Z 35005KT 22/18 A301 RMK A01 T02180175  RH  076%=      5-min Rain = 0
KPG1 110434Z 35005KT 22/17 A301 RMK A01 T02180173  RH  075%=      5-min Rain = 0
KPG1 110435Z 33003KT 22/17 A301 RMK A01 T02190173  RH  075%=      5-min Rain = 0
KPG1 110436Z 35002KT 22/18 A301 RMK A01 T02200175  RH  076%=      5-min Rain = 0
KPG1 110437Z 00002KT 22/18 A3009 RMK A01 T02200175  RH  076%=      5-min Rain = 0
KPG1 110438Z 36003KT 22/18 A3009 RMK A01 T02200175  RH  076%=      5-min Rain = 0
KPG1 110439Z 33001KT 22/17 A3009 RMK A01 T02200174  RH  075%=      5-min Rain = 0
KPG1 110440Z 28002KT 22/18 A3009 RMK A01 T02210176  RH  076%=      5-min Rain = 0
KPG1 110441Z 27002KT 22/18 A3009 RMK A01 T02210177  RH  076%=      5-min Rain = 0
KPG1 110442Z 25000KT 22/18 A3009 RMK A01 T02210176  RH  076%=      5-min Rain = 0
KPG1 110443Z 27000KT 22/18 A3009 RMK A01 T02210178  RH  076%=      5-min Rain = 0
KPG1 110444Z 12000KT 22/18 A3009 RMK A01 T02200177  RH  076%=      5-min Rain = 0
KPG1 110445Z 09001KT 22/18 A3009 RMK A01 T02200176  RH  076%=      5-min Rain = 0
KPG1 110446Z 08002KT 22/17 A3009 RMK A01 T02190174  RH  075%=      5-min Rain = 0
KPG1 110447Z 06000KT 22/17 A3009 RMK A01 T02190174  RH  076%=      5-min Rain = 0
KPG1 110448Z 11001KT 22/17 A3009 RMK A01 T02190174  RH  076%=      5-min Rain = 0
KPG1 110449Z 10001KT 22/18 A3009 RMK A01 T02190176  RH  076%=      5-min Rain = 0
KPG1 110450Z 10002KT 22/18 A3009 RMK A01 T02190176  RH  077%=      5-min Rain = 0
KPG1 110451Z 13001KT 22/18 A3009 RMK A01 T02190175  RH  076%=      5-min Rain = 0
KPG1 110452Z 11001KT 22/18 A3009 RMK A01 T02190175  RH  076%=      5-min Rain = 0
KPG1 110453Z 13001KT 22/18 A3009 RMK A01 T02190175  RH  076%=      5-min Rain = 0
KPG1 110454Z 20001KT 22/18 A3009 RMK A01 T02190176  RH  076%=      5-min Rain = 0
KPG1 110455Z 18001KT 22/18 A3009 RMK A01 T02190176  RH  076%=      5-min Rain = 0
KPG1 110456Z 18000KT 22/18 A3009 RMK A01 T02200177  RH  077%=      5-min Rain = 0
KPG1 110457Z 09001KT 22/18 A3009 RMK A01 T02200177  RH  077%=      5-min Rain = 0
KPG1 110458Z 09001KT 22/18 A3009 RMK A01 T02200178  RH  077%=      5-min Rain = 0
KPG1 110459Z 07001KT 22/18 A3009 RMK A01 T02190176  RH  076%=      5-min Rain = 0
KPG1 110500Z 07001KT 22/18 A3009 RMK A01 T02190176  RH  077%=      5-min Rain = 0

Page generated in 0.0842 seconds.